<?xml version="1.0" encoding="UTF-8" ?>
<gpx xmlns="http://www.topografix.com/GPX/1/1" version="1.1" creator="RouteGadget GPS Tracking" xmlns:xsi="http://www.w3.org/2001/XMLSchema-instance" xmlns:tp1="http://www.garmin.com/xmlschemas/TrackPointExtension/v1" xsi:schemaLocation="http://www.topografix.com/GPX/1/1 http://www.topografix.com/GPX/1/1/gpx.xsd http://www.garmin.com/xmlschemas/TrackPointExtension/v1 http://www.garmin.com/xmlschemas/TrackPointExtensionv1.xsd">
<trk>
<trkseg><trkpt lat="61.105795" lon="25.930508">
<time>2020-09-09T16:50:01Z</time>
</trkpt>
<trkpt lat="61.105795" lon="25.930508">
<time>2020-09-09T16:50:02Z</time>
</trkpt>
<trkpt lat="61.105795" lon="25.930508">
<time>2020-09-09T16:50:03Z</time>
</trkpt>
<trkpt lat="61.105795" lon="25.930508">
<time>2020-09-09T16:50:04Z</time>
</trkpt>
<trkpt lat="61.105795" lon="25.930508">
<time>2020-09-09T16:50:05Z</time>
</trkpt>
<trkpt lat="61.105798" lon="25.930518">
<time>2020-09-09T16:50:06Z</time>
</trkpt>
<trkpt lat="61.105825" lon="25.930588">
<time>2020-09-09T16:50:07Z</time>
</trkpt>
<trkpt lat="61.105861" lon="25.930683">
<time>2020-09-09T16:50:08Z</time>
</trkpt>
<trkpt lat="61.1059" lon="25.930801">
<time>2020-09-09T16:50:09Z</time>
</trkpt>
<trkpt lat="61.105926" lon="25.930943">
<time>2020-09-09T16:50:10Z</time>
</trkpt>
<trkpt lat="61.105953" lon="25.931086">
<time>2020-09-09T16:50:11Z</time>
</trkpt>
<trkpt lat="61.105978" lon="25.931241">
<time>2020-09-09T16:50:12Z</time>
</trkpt>
<trkpt lat="61.106003" lon="25.9314">
<time>2020-09-09T16:50:13Z</time>
</trkpt>
<trkpt lat="61.106028" lon="25.931565">
<time>2020-09-09T16:50:14Z</time>
</trkpt>
<trkpt lat="61.106051" lon="25.931735">
<time>2020-09-09T16:50:15Z</time>
</trkpt>
<trkpt lat="61.106073" lon="25.9319">
<time>2020-09-09T16:50:16Z</time>
</trkpt>
<trkpt lat="61.106093" lon="25.93207">
<time>2020-09-09T16:50:17Z</time>
</trkpt>
<trkpt lat="61.106115" lon="25.93224">
<time>2020-09-09T16:50:18Z</time>
</trkpt>
<trkpt lat="61.106136" lon="25.932408">
<time>2020-09-09T16:50:19Z</time>
</trkpt>
<trkpt lat="61.106155" lon="25.93258">
<time>2020-09-09T16:50:20Z</time>
</trkpt>
<trkpt lat="61.106163" lon="25.932755">
<time>2020-09-09T16:50:21Z</time>
</trkpt>
<trkpt lat="61.106155" lon="25.93292">
<time>2020-09-09T16:50:22Z</time>
</trkpt>
<trkpt lat="61.106128" lon="25.933071">
<time>2020-09-09T16:50:23Z</time>
</trkpt>
<trkpt lat="61.106081" lon="25.933226">
<time>2020-09-09T16:50:24Z</time>
</trkpt>
<trkpt lat="61.106043" lon="25.933313">
<time>2020-09-09T16:50:25Z</time>
</trkpt>
<trkpt lat="61.105998" lon="25.933416">
<time>2020-09-09T16:50:26Z</time>
</trkpt>
<trkpt lat="61.105955" lon="25.933515">
<time>2020-09-09T16:50:27Z</time>
</trkpt>
<trkpt lat="61.105911" lon="25.93361">
<time>2020-09-09T16:50:28Z</time>
</trkpt>
<trkpt lat="61.105873" lon="25.93372">
<time>2020-09-09T16:50:29Z</time>
</trkpt>
<trkpt lat="61.105851" lon="25.93382">
<time>2020-09-09T16:50:30Z</time>
</trkpt>
<trkpt lat="61.105845" lon="25.933915">
<time>2020-09-09T16:50:31Z</time>
</trkpt>
<trkpt lat="61.105838" lon="25.934011">
<time>2020-09-09T16:50:32Z</time>
</trkpt>
<trkpt lat="61.105841" lon="25.934111">
<time>2020-09-09T16:50:33Z</time>
</trkpt>
<trkpt lat="61.105843" lon="25.9342">
<time>2020-09-09T16:50:34Z</time>
</trkpt>
<trkpt lat="61.105848" lon="25.934285">
<time>2020-09-09T16:50:35Z</time>
</trkpt>
<trkpt lat="61.10584" lon="25.934378">
<time>2020-09-09T16:50:36Z</time>
</trkpt>
<trkpt lat="61.105811" lon="25.934411">
<time>2020-09-09T16:50:37Z</time>
</trkpt>
<trkpt lat="61.105778" lon="25.934441">
<time>2020-09-09T16:50:38Z</time>
</trkpt>
<trkpt lat="61.105736" lon="25.93448">
<time>2020-09-09T16:50:39Z</time>
</trkpt>
<trkpt lat="61.105696" lon="25.934535">
<time>2020-09-09T16:50:40Z</time>
</trkpt>
<trkpt lat="61.10566" lon="25.934603">
<time>2020-09-09T16:50:41Z</time>
</trkpt>
<trkpt lat="61.105621" lon="25.93467">
<time>2020-09-09T16:50:42Z</time>
</trkpt>
<trkpt lat="61.105578" lon="25.934718">
<time>2020-09-09T16:50:43Z</time>
</trkpt>
<trkpt lat="61.10553" lon="25.934748">
<time>2020-09-09T16:50:44Z</time>
</trkpt>
<trkpt lat="61.105473" lon="25.934765">
<time>2020-09-09T16:50:45Z</time>
</trkpt>
<trkpt lat="61.105413" lon="25.934751">
<time>2020-09-09T16:50:46Z</time>
</trkpt>
<trkpt lat="61.10536" lon="25.934716">
<time>2020-09-09T16:50:47Z</time>
</trkpt>
<trkpt lat="61.105311" lon="25.934661">
<time>2020-09-09T16:50:48Z</time>
</trkpt>
<trkpt lat="61.105276" lon="25.934618">
<time>2020-09-09T16:50:49Z</time>
</trkpt>
<trkpt lat="61.105238" lon="25.934546">
<time>2020-09-09T16:50:50Z</time>
</trkpt>
<trkpt lat="61.105208" lon="25.934461">
<time>2020-09-09T16:50:51Z</time>
</trkpt>
<trkpt lat="61.105181" lon="25.934361">
<time>2020-09-09T16:50:52Z</time>
</trkpt>
<trkpt lat="61.105155" lon="25.934255">
<time>2020-09-09T16:50:53Z</time>
</trkpt>
<trkpt lat="61.105126" lon="25.93415">
<time>2020-09-09T16:50:54Z</time>
</trkpt>
<trkpt lat="61.105096" lon="25.934048">
<time>2020-09-09T16:50:55Z</time>
</trkpt>
<trkpt lat="61.105066" lon="25.93395">
<time>2020-09-09T16:50:56Z</time>
</trkpt>
<trkpt lat="61.105035" lon="25.933853">
<time>2020-09-09T16:50:57Z</time>
</trkpt>
<trkpt lat="61.105" lon="25.93376">
<time>2020-09-09T16:50:58Z</time>
</trkpt>
<trkpt lat="61.104958" lon="25.93366">
<time>2020-09-09T16:50:59Z</time>
</trkpt>
<trkpt lat="61.104928" lon="25.933585">
<time>2020-09-09T16:51:00Z</time>
</trkpt>
<trkpt lat="61.104903" lon="25.933525">
<time>2020-09-09T16:51:01Z</time>
</trkpt>
<trkpt lat="61.104883" lon="25.933486">
<time>2020-09-09T16:51:02Z</time>
</trkpt>
<trkpt lat="61.104848" lon="25.933461">
<time>2020-09-09T16:51:03Z</time>
</trkpt>
<trkpt lat="61.104811" lon="25.93345">
<time>2020-09-09T16:51:04Z</time>
</trkpt>
<trkpt lat="61.104775" lon="25.933453">
<time>2020-09-09T16:51:05Z</time>
</trkpt>
<trkpt lat="61.10473" lon="25.933466">
<time>2020-09-09T16:51:06Z</time>
</trkpt>
<trkpt lat="61.104683" lon="25.93349">
<time>2020-09-09T16:51:07Z</time>
</trkpt>
<trkpt lat="61.104638" lon="25.93351">
<time>2020-09-09T16:51:08Z</time>
</trkpt>
<trkpt lat="61.104573" lon="25.933545">
<time>2020-09-09T16:51:09Z</time>
</trkpt>
<trkpt lat="61.104528" lon="25.933573">
<time>2020-09-09T16:51:10Z</time>
</trkpt>
<trkpt lat="61.104471" lon="25.933603">
<time>2020-09-09T16:51:11Z</time>
</trkpt>
<trkpt lat="61.10441" lon="25.93363">
<time>2020-09-09T16:51:12Z</time>
</trkpt>
<trkpt lat="61.10435" lon="25.933656">
<time>2020-09-09T16:51:13Z</time>
</trkpt>
<trkpt lat="61.10429" lon="25.933663">
<time>2020-09-09T16:51:14Z</time>
</trkpt>
<trkpt lat="61.104235" lon="25.933636">
<time>2020-09-09T16:51:15Z</time>
</trkpt>
<trkpt lat="61.104191" lon="25.933571">
<time>2020-09-09T16:51:16Z</time>
</trkpt>
<trkpt lat="61.104155" lon="25.933458">
<time>2020-09-09T16:51:17Z</time>
</trkpt>
<trkpt lat="61.104135" lon="25.933345">
<time>2020-09-09T16:51:18Z</time>
</trkpt>
<trkpt lat="61.104116" lon="25.933218">
<time>2020-09-09T16:51:19Z</time>
</trkpt>
<trkpt lat="61.1041" lon="25.933083">
<time>2020-09-09T16:51:20Z</time>
</trkpt>
<trkpt lat="61.104088" lon="25.93297">
<time>2020-09-09T16:51:21Z</time>
</trkpt>
<trkpt lat="61.104073" lon="25.932818">
<time>2020-09-09T16:51:22Z</time>
</trkpt>
<trkpt lat="61.104055" lon="25.932645">
<time>2020-09-09T16:51:23Z</time>
</trkpt>
<trkpt lat="61.104036" lon="25.932491">
<time>2020-09-09T16:51:24Z</time>
</trkpt>
<trkpt lat="61.104021" lon="25.932338">
<time>2020-09-09T16:51:25Z</time>
</trkpt>
<trkpt lat="61.104013" lon="25.932208">
<time>2020-09-09T16:51:26Z</time>
</trkpt>
<trkpt lat="61.104" lon="25.93206">
<time>2020-09-09T16:51:27Z</time>
</trkpt>
<trkpt lat="61.103981" lon="25.931893">
<time>2020-09-09T16:51:28Z</time>
</trkpt>
<trkpt lat="61.103963" lon="25.9318">
<time>2020-09-09T16:51:29Z</time>
</trkpt>
<trkpt lat="61.103928" lon="25.931716">
<time>2020-09-09T16:51:30Z</time>
</trkpt>
<trkpt lat="61.10388" lon="25.931678">
<time>2020-09-09T16:51:31Z</time>
</trkpt>
<trkpt lat="61.103821" lon="25.93167">
<time>2020-09-09T16:51:32Z</time>
</trkpt>
<trkpt lat="61.103758" lon="25.931681">
<time>2020-09-09T16:51:33Z</time>
</trkpt>
<trkpt lat="61.103676" lon="25.931715">
<time>2020-09-09T16:51:34Z</time>
</trkpt>
<trkpt lat="61.103595" lon="25.93177">
<time>2020-09-09T16:51:35Z</time>
</trkpt>
<trkpt lat="61.103531" lon="25.93181">
<time>2020-09-09T16:51:36Z</time>
</trkpt>
<trkpt lat="61.10343" lon="25.931871">
<time>2020-09-09T16:51:37Z</time>
</trkpt>
<trkpt lat="61.10334" lon="25.931923">
<time>2020-09-09T16:51:38Z</time>
</trkpt>
<trkpt lat="61.103248" lon="25.931968">
<time>2020-09-09T16:51:39Z</time>
</trkpt>
<trkpt lat="61.103155" lon="25.932006">
<time>2020-09-09T16:51:40Z</time>
</trkpt>
<trkpt lat="61.103058" lon="25.932036">
<time>2020-09-09T16:51:41Z</time>
</trkpt>
<trkpt lat="61.10296" lon="25.932068">
<time>2020-09-09T16:51:42Z</time>
</trkpt>
<trkpt lat="61.102865" lon="25.932108">
<time>2020-09-09T16:51:43Z</time>
</trkpt>
<trkpt lat="61.102766" lon="25.932163">
<time>2020-09-09T16:51:44Z</time>
</trkpt>
<trkpt lat="61.10267" lon="25.932233">
<time>2020-09-09T16:51:45Z</time>
</trkpt>
<trkpt lat="61.102591" lon="25.93227">
<time>2020-09-09T16:51:46Z</time>
</trkpt>
<trkpt lat="61.102491" lon="25.932286">
<time>2020-09-09T16:51:47Z</time>
</trkpt>
<trkpt lat="61.102421" lon="25.932245">
<time>2020-09-09T16:51:48Z</time>
</trkpt>
<trkpt lat="61.102361" lon="25.932181">
<time>2020-09-09T16:51:49Z</time>
</trkpt>
<trkpt lat="61.102318" lon="25.932076">
<time>2020-09-09T16:51:50Z</time>
</trkpt>
<trkpt lat="61.1023" lon="25.931915">
<time>2020-09-09T16:51:51Z</time>
</trkpt>
<trkpt lat="61.102286" lon="25.931746">
<time>2020-09-09T16:51:52Z</time>
</trkpt>
<trkpt lat="61.10227" lon="25.93157">
<time>2020-09-09T16:51:53Z</time>
</trkpt>
<trkpt lat="61.102256" lon="25.93142">
<time>2020-09-09T16:51:54Z</time>
</trkpt>
<trkpt lat="61.102236" lon="25.931231">
<time>2020-09-09T16:51:55Z</time>
</trkpt>
<trkpt lat="61.102208" lon="25.931">
<time>2020-09-09T16:51:56Z</time>
</trkpt>
<trkpt lat="61.102183" lon="25.930793">
<time>2020-09-09T16:51:57Z</time>
</trkpt>
<trkpt lat="61.10216" lon="25.930586">
<time>2020-09-09T16:51:58Z</time>
</trkpt>
<trkpt lat="61.10214" lon="25.930418">
<time>2020-09-09T16:51:59Z</time>
</trkpt>
<trkpt lat="61.10211" lon="25.93017">
<time>2020-09-09T16:52:00Z</time>
</trkpt>
<trkpt lat="61.102085" lon="25.929958">
<time>2020-09-09T16:52:01Z</time>
</trkpt>
<trkpt lat="61.102061" lon="25.929746">
<time>2020-09-09T16:52:02Z</time>
</trkpt>
<trkpt lat="61.102041" lon="25.929526">
<time>2020-09-09T16:52:03Z</time>
</trkpt>
<trkpt lat="61.102015" lon="25.92932">
<time>2020-09-09T16:52:04Z</time>
</trkpt>
<trkpt lat="61.101991" lon="25.929113">
<time>2020-09-09T16:52:05Z</time>
</trkpt>
<trkpt lat="61.101966" lon="25.928903">
<time>2020-09-09T16:52:06Z</time>
</trkpt>
<trkpt lat="61.101943" lon="25.92869">
<time>2020-09-09T16:52:07Z</time>
</trkpt>
<trkpt lat="61.101921" lon="25.928485">
<time>2020-09-09T16:52:08Z</time>
</trkpt>
<trkpt lat="61.101898" lon="25.92828">
<time>2020-09-09T16:52:09Z</time>
</trkpt>
<trkpt lat="61.101871" lon="25.928076">
<time>2020-09-09T16:52:10Z</time>
</trkpt>
<trkpt lat="61.10184" lon="25.927873">
<time>2020-09-09T16:52:11Z</time>
</trkpt>
<trkpt lat="61.101811" lon="25.92767">
<time>2020-09-09T16:52:12Z</time>
</trkpt>
<trkpt lat="61.101786" lon="25.927466">
<time>2020-09-09T16:52:13Z</time>
</trkpt>
<trkpt lat="61.101761" lon="25.927265">
<time>2020-09-09T16:52:14Z</time>
</trkpt>
<trkpt lat="61.10174" lon="25.927063">
<time>2020-09-09T16:52:15Z</time>
</trkpt>
<trkpt lat="61.101723" lon="25.926858">
<time>2020-09-09T16:52:16Z</time>
</trkpt>
<trkpt lat="61.101718" lon="25.926651">
<time>2020-09-09T16:52:17Z</time>
</trkpt>
<trkpt lat="61.101718" lon="25.926443">
<time>2020-09-09T16:52:18Z</time>
</trkpt>
<trkpt lat="61.101725" lon="25.926231">
<time>2020-09-09T16:52:19Z</time>
</trkpt>
<trkpt lat="61.101733" lon="25.926021">
<time>2020-09-09T16:52:20Z</time>
</trkpt>
<trkpt lat="61.10174" lon="25.925816">
<time>2020-09-09T16:52:21Z</time>
</trkpt>
<trkpt lat="61.101748" lon="25.925615">
<time>2020-09-09T16:52:22Z</time>
</trkpt>
<trkpt lat="61.101758" lon="25.92542">
<time>2020-09-09T16:52:23Z</time>
</trkpt>
<trkpt lat="61.101766" lon="25.925233">
<time>2020-09-09T16:52:24Z</time>
</trkpt>
<trkpt lat="61.101775" lon="25.925055">
<time>2020-09-09T16:52:25Z</time>
</trkpt>
<trkpt lat="61.101783" lon="25.924885">
<time>2020-09-09T16:52:26Z</time>
</trkpt>
<trkpt lat="61.101786" lon="25.92472">
<time>2020-09-09T16:52:27Z</time>
</trkpt>
<trkpt lat="61.101795" lon="25.924575">
<time>2020-09-09T16:52:28Z</time>
</trkpt>
<trkpt lat="61.101803" lon="25.924455">
<time>2020-09-09T16:52:29Z</time>
</trkpt>
<trkpt lat="61.101818" lon="25.924361">
<time>2020-09-09T16:52:30Z</time>
</trkpt>
<trkpt lat="61.101826" lon="25.924285">
<time>2020-09-09T16:52:31Z</time>
</trkpt>
<trkpt lat="61.101828" lon="25.924226">
<time>2020-09-09T16:52:32Z</time>
</trkpt>
<trkpt lat="61.101821" lon="25.924178">
<time>2020-09-09T16:52:33Z</time>
</trkpt>
<trkpt lat="61.101805" lon="25.924125">
<time>2020-09-09T16:52:34Z</time>
</trkpt>
<trkpt lat="61.101783" lon="25.924068">
<time>2020-09-09T16:52:35Z</time>
</trkpt>
<trkpt lat="61.10177" lon="25.923998">
<time>2020-09-09T16:52:36Z</time>
</trkpt>
<trkpt lat="61.10176" lon="25.923925">
<time>2020-09-09T16:52:37Z</time>
</trkpt>
<trkpt lat="61.101746" lon="25.923835">
<time>2020-09-09T16:52:38Z</time>
</trkpt>
<trkpt lat="61.10174" lon="25.923753">
<time>2020-09-09T16:52:39Z</time>
</trkpt>
<trkpt lat="61.101733" lon="25.923678">
<time>2020-09-09T16:52:40Z</time>
</trkpt>
<trkpt lat="61.101721" lon="25.923593">
<time>2020-09-09T16:52:41Z</time>
</trkpt>
<trkpt lat="61.101706" lon="25.923503">
<time>2020-09-09T16:52:42Z</time>
</trkpt>
<trkpt lat="61.1017" lon="25.923411">
<time>2020-09-09T16:52:43Z</time>
</trkpt>
<trkpt lat="61.101698" lon="25.923306">
<time>2020-09-09T16:52:44Z</time>
</trkpt>
<trkpt lat="61.1017" lon="25.923198">
<time>2020-09-09T16:52:45Z</time>
</trkpt>
<trkpt lat="61.101705" lon="25.923091">
<time>2020-09-09T16:52:46Z</time>
</trkpt>
<trkpt lat="61.10171" lon="25.92298">
<time>2020-09-09T16:52:47Z</time>
</trkpt>
<trkpt lat="61.101723" lon="25.92286">
<time>2020-09-09T16:52:48Z</time>
</trkpt>
<trkpt lat="61.10174" lon="25.922751">
<time>2020-09-09T16:52:49Z</time>
</trkpt>
<trkpt lat="61.10175" lon="25.922636">
<time>2020-09-09T16:52:50Z</time>
</trkpt>
<trkpt lat="61.101751" lon="25.922506">
<time>2020-09-09T16:52:51Z</time>
</trkpt>
<trkpt lat="61.101753" lon="25.922385">
<time>2020-09-09T16:52:52Z</time>
</trkpt>
<trkpt lat="61.101751" lon="25.922255">
<time>2020-09-09T16:52:53Z</time>
</trkpt>
<trkpt lat="61.10175" lon="25.922116">
<time>2020-09-09T16:52:54Z</time>
</trkpt>
<trkpt lat="61.10175" lon="25.921975">
<time>2020-09-09T16:52:55Z</time>
</trkpt>
<trkpt lat="61.101756" lon="25.921846">
<time>2020-09-09T16:52:56Z</time>
</trkpt>
<trkpt lat="61.101766" lon="25.921723">
<time>2020-09-09T16:52:57Z</time>
</trkpt>
<trkpt lat="61.101781" lon="25.921606">
<time>2020-09-09T16:52:58Z</time>
</trkpt>
<trkpt lat="61.101801" lon="25.921485">
<time>2020-09-09T16:52:59Z</time>
</trkpt>
<trkpt lat="61.101816" lon="25.921381">
<time>2020-09-09T16:53:00Z</time>
</trkpt>
<trkpt lat="61.101838" lon="25.921253">
<time>2020-09-09T16:53:01Z</time>
</trkpt>
<trkpt lat="61.101865" lon="25.921098">
<time>2020-09-09T16:53:02Z</time>
</trkpt>
<trkpt lat="61.101888" lon="25.920971">
<time>2020-09-09T16:53:03Z</time>
</trkpt>
<trkpt lat="61.101913" lon="25.920855">
<time>2020-09-09T16:53:04Z</time>
</trkpt>
<trkpt lat="61.101938" lon="25.920771">
<time>2020-09-09T16:53:05Z</time>
</trkpt>
<trkpt lat="61.101985" lon="25.920665">
<time>2020-09-09T16:53:06Z</time>
</trkpt>
<trkpt lat="61.102033" lon="25.920608">
<time>2020-09-09T16:53:07Z</time>
</trkpt>
<trkpt lat="61.102085" lon="25.92058">
<time>2020-09-09T16:53:08Z</time>
</trkpt>
<trkpt lat="61.102125" lon="25.920595">
<time>2020-09-09T16:53:09Z</time>
</trkpt>
<trkpt lat="61.102183" lon="25.920656">
<time>2020-09-09T16:53:10Z</time>
</trkpt>
<trkpt lat="61.102228" lon="25.920726">
<time>2020-09-09T16:53:11Z</time>
</trkpt>
<trkpt lat="61.102273" lon="25.92084">
<time>2020-09-09T16:53:12Z</time>
</trkpt>
<trkpt lat="61.102303" lon="25.920961">
<time>2020-09-09T16:53:13Z</time>
</trkpt>
<trkpt lat="61.102333" lon="25.921088">
<time>2020-09-09T16:53:14Z</time>
</trkpt>
<trkpt lat="61.102356" lon="25.921193">
<time>2020-09-09T16:53:15Z</time>
</trkpt>
<trkpt lat="61.102393" lon="25.921335">
<time>2020-09-09T16:53:16Z</time>
</trkpt>
<trkpt lat="61.102418" lon="25.921445">
<time>2020-09-09T16:53:17Z</time>
</trkpt>
<trkpt lat="61.102435" lon="25.921555">
<time>2020-09-09T16:53:18Z</time>
</trkpt>
<trkpt lat="61.102453" lon="25.921656">
<time>2020-09-09T16:53:19Z</time>
</trkpt>
<trkpt lat="61.102463" lon="25.921768">
<time>2020-09-09T16:53:20Z</time>
</trkpt>
<trkpt lat="61.10248" lon="25.92187">
<time>2020-09-09T16:53:21Z</time>
</trkpt>
<trkpt lat="61.102496" lon="25.921968">
<time>2020-09-09T16:53:22Z</time>
</trkpt>
<trkpt lat="61.102511" lon="25.92206">
<time>2020-09-09T16:53:23Z</time>
</trkpt>
<trkpt lat="61.102528" lon="25.922178">
<time>2020-09-09T16:53:24Z</time>
</trkpt>
<trkpt lat="61.102546" lon="25.922275">
<time>2020-09-09T16:53:25Z</time>
</trkpt>
<trkpt lat="61.102573" lon="25.922385">
<time>2020-09-09T16:53:26Z</time>
</trkpt>
<trkpt lat="61.102598" lon="25.92248">
<time>2020-09-09T16:53:27Z</time>
</trkpt>
<trkpt lat="61.102618" lon="25.922565">
<time>2020-09-09T16:53:28Z</time>
</trkpt>
<trkpt lat="61.102641" lon="25.922665">
<time>2020-09-09T16:53:29Z</time>
</trkpt>
<trkpt lat="61.102671" lon="25.922763">
<time>2020-09-09T16:53:30Z</time>
</trkpt>
<trkpt lat="61.102706" lon="25.922868">
<time>2020-09-09T16:53:31Z</time>
</trkpt>
<trkpt lat="61.102736" lon="25.922955">
<time>2020-09-09T16:53:32Z</time>
</trkpt>
<trkpt lat="61.102766" lon="25.923041">
<time>2020-09-09T16:53:33Z</time>
</trkpt>
<trkpt lat="61.102795" lon="25.923105">
<time>2020-09-09T16:53:34Z</time>
</trkpt>
<trkpt lat="61.102836" lon="25.92319">
<time>2020-09-09T16:53:35Z</time>
</trkpt>
<trkpt lat="61.10287" lon="25.923251">
<time>2020-09-09T16:53:36Z</time>
</trkpt>
<trkpt lat="61.102896" lon="25.923303">
<time>2020-09-09T16:53:37Z</time>
</trkpt>
<trkpt lat="61.102923" lon="25.923351">
<time>2020-09-09T16:53:38Z</time>
</trkpt>
<trkpt lat="61.102941" lon="25.923383">
<time>2020-09-09T16:53:39Z</time>
</trkpt>
<trkpt lat="61.102973" lon="25.923421">
<time>2020-09-09T16:53:40Z</time>
</trkpt>
<trkpt lat="61.103005" lon="25.923466">
<time>2020-09-09T16:53:41Z</time>
</trkpt>
<trkpt lat="61.103025" lon="25.923496">
<time>2020-09-09T16:53:42Z</time>
</trkpt>
<trkpt lat="61.10305" lon="25.923535">
<time>2020-09-09T16:53:43Z</time>
</trkpt>
<trkpt lat="61.103075" lon="25.923573">
<time>2020-09-09T16:53:44Z</time>
</trkpt>
<trkpt lat="61.103098" lon="25.923603">
<time>2020-09-09T16:53:45Z</time>
</trkpt>
<trkpt lat="61.103128" lon="25.923633">
<time>2020-09-09T16:53:46Z</time>
</trkpt>
<trkpt lat="61.103151" lon="25.92366">
<time>2020-09-09T16:53:47Z</time>
</trkpt>
<trkpt lat="61.10318" lon="25.923691">
<time>2020-09-09T16:53:48Z</time>
</trkpt>
<trkpt lat="61.103218" lon="25.923736">
<time>2020-09-09T16:53:49Z</time>
</trkpt>
<trkpt lat="61.10326" lon="25.92376">
<time>2020-09-09T16:53:50Z</time>
</trkpt>
<trkpt lat="61.103285" lon="25.923776">
<time>2020-09-09T16:53:51Z</time>
</trkpt>
<trkpt lat="61.103313" lon="25.923791">
<time>2020-09-09T16:53:52Z</time>
</trkpt>
<trkpt lat="61.103333" lon="25.923803">
<time>2020-09-09T16:53:53Z</time>
</trkpt>
<trkpt lat="61.103365" lon="25.923818">
<time>2020-09-09T16:53:54Z</time>
</trkpt>
<trkpt lat="61.103391" lon="25.923825">
<time>2020-09-09T16:53:55Z</time>
</trkpt>
<trkpt lat="61.103416" lon="25.923828">
<time>2020-09-09T16:53:56Z</time>
</trkpt>
<trkpt lat="61.10344" lon="25.923833">
<time>2020-09-09T16:53:57Z</time>
</trkpt>
<trkpt lat="61.103468" lon="25.923838">
<time>2020-09-09T16:53:58Z</time>
</trkpt>
<trkpt lat="61.103498" lon="25.92384">
<time>2020-09-09T16:53:59Z</time>
</trkpt>
<trkpt lat="61.103525" lon="25.923838">
<time>2020-09-09T16:54:00Z</time>
</trkpt>
<trkpt lat="61.103565" lon="25.923828">
<time>2020-09-09T16:54:01Z</time>
</trkpt>
<trkpt lat="61.1036" lon="25.923823">
<time>2020-09-09T16:54:02Z</time>
</trkpt>
<trkpt lat="61.103631" lon="25.923821">
<time>2020-09-09T16:54:03Z</time>
</trkpt>
<trkpt lat="61.103671" lon="25.923806">
<time>2020-09-09T16:54:04Z</time>
</trkpt>
<trkpt lat="61.103701" lon="25.92378">
<time>2020-09-09T16:54:05Z</time>
</trkpt>
<trkpt lat="61.103733" lon="25.923761">
<time>2020-09-09T16:54:06Z</time>
</trkpt>
<trkpt lat="61.103771" lon="25.923731">
<time>2020-09-09T16:54:07Z</time>
</trkpt>
<trkpt lat="61.103808" lon="25.923705">
<time>2020-09-09T16:54:08Z</time>
</trkpt>
<trkpt lat="61.103848" lon="25.923678">
<time>2020-09-09T16:54:09Z</time>
</trkpt>
<trkpt lat="61.103883" lon="25.923656">
<time>2020-09-09T16:54:10Z</time>
</trkpt>
<trkpt lat="61.10392" lon="25.92363">
<time>2020-09-09T16:54:11Z</time>
</trkpt>
<trkpt lat="61.103951" lon="25.923618">
<time>2020-09-09T16:54:12Z</time>
</trkpt>
<trkpt lat="61.103985" lon="25.923601">
<time>2020-09-09T16:54:13Z</time>
</trkpt>
<trkpt lat="61.104031" lon="25.923578">
<time>2020-09-09T16:54:14Z</time>
</trkpt>
<trkpt lat="61.104073" lon="25.923556">
<time>2020-09-09T16:54:15Z</time>
</trkpt>
<trkpt lat="61.104111" lon="25.923546">
<time>2020-09-09T16:54:16Z</time>
</trkpt>
<trkpt lat="61.104158" lon="25.923531">
<time>2020-09-09T16:54:17Z</time>
</trkpt>
<trkpt lat="61.104216" lon="25.923505">
<time>2020-09-09T16:54:18Z</time>
</trkpt>
<trkpt lat="61.104256" lon="25.923481">
<time>2020-09-09T16:54:19Z</time>
</trkpt>
<trkpt lat="61.104296" lon="25.923455">
<time>2020-09-09T16:54:20Z</time>
</trkpt>
<trkpt lat="61.104338" lon="25.923433">
<time>2020-09-09T16:54:21Z</time>
</trkpt>
<trkpt lat="61.104373" lon="25.92342">
<time>2020-09-09T16:54:22Z</time>
</trkpt>
<trkpt lat="61.10441" lon="25.923415">
<time>2020-09-09T16:54:23Z</time>
</trkpt>
<trkpt lat="61.104451" lon="25.923408">
<time>2020-09-09T16:54:24Z</time>
</trkpt>
<trkpt lat="61.104498" lon="25.92338">
<time>2020-09-09T16:54:25Z</time>
</trkpt>
<trkpt lat="61.104531" lon="25.923343">
<time>2020-09-09T16:54:26Z</time>
</trkpt>
<trkpt lat="61.104563" lon="25.923281">
<time>2020-09-09T16:54:27Z</time>
</trkpt>
<trkpt lat="61.104586" lon="25.923215">
<time>2020-09-09T16:54:28Z</time>
</trkpt>
<trkpt lat="61.10459" lon="25.923121">
<time>2020-09-09T16:54:29Z</time>
</trkpt>
<trkpt lat="61.10458" lon="25.923011">
<time>2020-09-09T16:54:30Z</time>
</trkpt>
<trkpt lat="61.104568" lon="25.922928">
<time>2020-09-09T16:54:31Z</time>
</trkpt>
<trkpt lat="61.104548" lon="25.922828">
<time>2020-09-09T16:54:32Z</time>
</trkpt>
<trkpt lat="61.104525" lon="25.922705">
<time>2020-09-09T16:54:33Z</time>
</trkpt>
<trkpt lat="61.104506" lon="25.92259">
<time>2020-09-09T16:54:34Z</time>
</trkpt>
<trkpt lat="61.104491" lon="25.922471">
<time>2020-09-09T16:54:35Z</time>
</trkpt>
<trkpt lat="61.104476" lon="25.922353">
<time>2020-09-09T16:54:36Z</time>
</trkpt>
<trkpt lat="61.104471" lon="25.922268">
<time>2020-09-09T16:54:37Z</time>
</trkpt>
<trkpt lat="61.104465" lon="25.922131">
<time>2020-09-09T16:54:38Z</time>
</trkpt>
<trkpt lat="61.104465" lon="25.922008">
<time>2020-09-09T16:54:39Z</time>
</trkpt>
<trkpt lat="61.10446" lon="25.921888">
<time>2020-09-09T16:54:40Z</time>
</trkpt>
<trkpt lat="61.104448" lon="25.921773">
<time>2020-09-09T16:54:41Z</time>
</trkpt>
<trkpt lat="61.104441" lon="25.921693">
<time>2020-09-09T16:54:42Z</time>
</trkpt>
<trkpt lat="61.104435" lon="25.921618">
<time>2020-09-09T16:54:43Z</time>
</trkpt>
<trkpt lat="61.10442" lon="25.9216">
<time>2020-09-09T16:54:44Z</time>
</trkpt>
<trkpt lat="61.104411" lon="25.921618">
<time>2020-09-09T16:54:45Z</time>
</trkpt>
<trkpt lat="61.104413" lon="25.92164">
<time>2020-09-09T16:54:46Z</time>
</trkpt>
<trkpt lat="61.104418" lon="25.92167">
<time>2020-09-09T16:54:47Z</time>
</trkpt>
<trkpt lat="61.104425" lon="25.921705">
<time>2020-09-09T16:54:48Z</time>
</trkpt>
<trkpt lat="61.104431" lon="25.921753">
<time>2020-09-09T16:54:49Z</time>
</trkpt>
<trkpt lat="61.104433" lon="25.921803">
<time>2020-09-09T16:54:50Z</time>
</trkpt>
<trkpt lat="61.104441" lon="25.921893">
<time>2020-09-09T16:54:51Z</time>
</trkpt>
<trkpt lat="61.104451" lon="25.92198">
<time>2020-09-09T16:54:52Z</time>
</trkpt>
<trkpt lat="61.10446" lon="25.922065">
<time>2020-09-09T16:54:53Z</time>
</trkpt>
<trkpt lat="61.104468" lon="25.922146">
<time>2020-09-09T16:54:54Z</time>
</trkpt>
<trkpt lat="61.10448" lon="25.922236">
<time>2020-09-09T16:54:55Z</time>
</trkpt>
<trkpt lat="61.10449" lon="25.922333">
<time>2020-09-09T16:54:56Z</time>
</trkpt>
<trkpt lat="61.104503" lon="25.922441">
<time>2020-09-09T16:54:57Z</time>
</trkpt>
<trkpt lat="61.104521" lon="25.922561">
<time>2020-09-09T16:54:58Z</time>
</trkpt>
<trkpt lat="61.104541" lon="25.922695">
<time>2020-09-09T16:54:59Z</time>
</trkpt>
<trkpt lat="61.10457" lon="25.922836">
<time>2020-09-09T16:55:00Z</time>
</trkpt>
<trkpt lat="61.104598" lon="25.922978">
<time>2020-09-09T16:55:01Z</time>
</trkpt>
<trkpt lat="61.104626" lon="25.923115">
<time>2020-09-09T16:55:02Z</time>
</trkpt>
<trkpt lat="61.104661" lon="25.923236">
<time>2020-09-09T16:55:03Z</time>
</trkpt>
<trkpt lat="61.104698" lon="25.923358">
<time>2020-09-09T16:55:04Z</time>
</trkpt>
<trkpt lat="61.104746" lon="25.92348">
<time>2020-09-09T16:55:05Z</time>
</trkpt>
<trkpt lat="61.104796" lon="25.92359">
<time>2020-09-09T16:55:06Z</time>
</trkpt>
<trkpt lat="61.104843" lon="25.923685">
<time>2020-09-09T16:55:07Z</time>
</trkpt>
<trkpt lat="61.104893" lon="25.923771">
<time>2020-09-09T16:55:08Z</time>
</trkpt>
<trkpt lat="61.104943" lon="25.923855">
<time>2020-09-09T16:55:09Z</time>
</trkpt>
<trkpt lat="61.104991" lon="25.923948">
<time>2020-09-09T16:55:10Z</time>
</trkpt>
<trkpt lat="61.105035" lon="25.924043">
<time>2020-09-09T16:55:11Z</time>
</trkpt>
<trkpt lat="61.105066" lon="25.924138">
<time>2020-09-09T16:55:12Z</time>
</trkpt>
<trkpt lat="61.105098" lon="25.92422">
<time>2020-09-09T16:55:13Z</time>
</trkpt>
<trkpt lat="61.105125" lon="25.92427">
<time>2020-09-09T16:55:14Z</time>
</trkpt>
<trkpt lat="61.10515" lon="25.924306">
<time>2020-09-09T16:55:15Z</time>
</trkpt>
<trkpt lat="61.105175" lon="25.924321">
<time>2020-09-09T16:55:16Z</time>
</trkpt>
<trkpt lat="61.1052" lon="25.92433">
<time>2020-09-09T16:55:17Z</time>
</trkpt>
<trkpt lat="61.105216" lon="25.924338">
<time>2020-09-09T16:55:18Z</time>
</trkpt>
<trkpt lat="61.105225" lon="25.924355">
<time>2020-09-09T16:55:19Z</time>
</trkpt>
<trkpt lat="61.105226" lon="25.924373">
<time>2020-09-09T16:55:20Z</time>
</trkpt>
<trkpt lat="61.10522" lon="25.924391">
<time>2020-09-09T16:55:21Z</time>
</trkpt>
<trkpt lat="61.1052" lon="25.924428">
<time>2020-09-09T16:55:22Z</time>
</trkpt>
<trkpt lat="61.10517" lon="25.924451">
<time>2020-09-09T16:55:23Z</time>
</trkpt>
<trkpt lat="61.105141" lon="25.924473">
<time>2020-09-09T16:55:24Z</time>
</trkpt>
<trkpt lat="61.105111" lon="25.924498">
<time>2020-09-09T16:55:25Z</time>
</trkpt>
<trkpt lat="61.105056" lon="25.924531">
<time>2020-09-09T16:55:26Z</time>
</trkpt>
<trkpt lat="61.105001" lon="25.924563">
<time>2020-09-09T16:55:27Z</time>
</trkpt>
<trkpt lat="61.104951" lon="25.924593">
<time>2020-09-09T16:55:28Z</time>
</trkpt>
<trkpt lat="61.104893" lon="25.924625">
<time>2020-09-09T16:55:29Z</time>
</trkpt>
<trkpt lat="61.10484" lon="25.924645">
<time>2020-09-09T16:55:30Z</time>
</trkpt>
<trkpt lat="61.10479" lon="25.924645">
<time>2020-09-09T16:55:31Z</time>
</trkpt>
<trkpt lat="61.104733" lon="25.924625">
<time>2020-09-09T16:55:32Z</time>
</trkpt>
<trkpt lat="61.10468" lon="25.924585">
<time>2020-09-09T16:55:33Z</time>
</trkpt>
<trkpt lat="61.104625" lon="25.924531">
<time>2020-09-09T16:55:34Z</time>
</trkpt>
<trkpt lat="61.10457" lon="25.924475">
<time>2020-09-09T16:55:35Z</time>
</trkpt>
<trkpt lat="61.104508" lon="25.924456">
<time>2020-09-09T16:55:36Z</time>
</trkpt>
<trkpt lat="61.10444" lon="25.924458">
<time>2020-09-09T16:55:37Z</time>
</trkpt>
<trkpt lat="61.104355" lon="25.924493">
<time>2020-09-09T16:55:38Z</time>
</trkpt>
<trkpt lat="61.10428" lon="25.92453">
<time>2020-09-09T16:55:39Z</time>
</trkpt>
<trkpt lat="61.104213" lon="25.924568">
<time>2020-09-09T16:55:40Z</time>
</trkpt>
<trkpt lat="61.104138" lon="25.924621">
<time>2020-09-09T16:55:41Z</time>
</trkpt>
<trkpt lat="61.104053" lon="25.924673">
<time>2020-09-09T16:55:42Z</time>
</trkpt>
<trkpt lat="61.103976" lon="25.924715">
<time>2020-09-09T16:55:43Z</time>
</trkpt>
<trkpt lat="61.103913" lon="25.924743">
<time>2020-09-09T16:55:44Z</time>
</trkpt>
<trkpt lat="61.103855" lon="25.924776">
<time>2020-09-09T16:55:45Z</time>
</trkpt>
<trkpt lat="61.103805" lon="25.924825">
<time>2020-09-09T16:55:46Z</time>
</trkpt>
<trkpt lat="61.103768" lon="25.924903">
<time>2020-09-09T16:55:47Z</time>
</trkpt>
<trkpt lat="61.103756" lon="25.925001">
<time>2020-09-09T16:55:48Z</time>
</trkpt>
<trkpt lat="61.103761" lon="25.92512">
<time>2020-09-09T16:55:49Z</time>
</trkpt>
<trkpt lat="61.103776" lon="25.925251">
<time>2020-09-09T16:55:50Z</time>
</trkpt>
<trkpt lat="61.103803" lon="25.925383">
<time>2020-09-09T16:55:51Z</time>
</trkpt>
<trkpt lat="61.103838" lon="25.925566">
<time>2020-09-09T16:55:52Z</time>
</trkpt>
<trkpt lat="61.103865" lon="25.925731">
<time>2020-09-09T16:55:53Z</time>
</trkpt>
<trkpt lat="61.103891" lon="25.925895">
<time>2020-09-09T16:55:54Z</time>
</trkpt>
<trkpt lat="61.103913" lon="25.926053">
<time>2020-09-09T16:55:55Z</time>
</trkpt>
<trkpt lat="61.10393" lon="25.926175">
<time>2020-09-09T16:55:56Z</time>
</trkpt>
<trkpt lat="61.103938" lon="25.926321">
<time>2020-09-09T16:55:57Z</time>
</trkpt>
<trkpt lat="61.103926" lon="25.926488">
<time>2020-09-09T16:55:58Z</time>
</trkpt>
<trkpt lat="61.103893" lon="25.9266">
<time>2020-09-09T16:55:59Z</time>
</trkpt>
<trkpt lat="61.103841" lon="25.926673">
<time>2020-09-09T16:56:00Z</time>
</trkpt>
<trkpt lat="61.103783" lon="25.926743">
<time>2020-09-09T16:56:01Z</time>
</trkpt>
<trkpt lat="61.10373" lon="25.926823">
<time>2020-09-09T16:56:02Z</time>
</trkpt>
<trkpt lat="61.103676" lon="25.926896">
<time>2020-09-09T16:56:03Z</time>
</trkpt>
<trkpt lat="61.103646" lon="25.92699">
<time>2020-09-09T16:56:04Z</time>
</trkpt>
<trkpt lat="61.103638" lon="25.927098">
<time>2020-09-09T16:56:05Z</time>
</trkpt>
<trkpt lat="61.103643" lon="25.927215">
<time>2020-09-09T16:56:06Z</time>
</trkpt>
<trkpt lat="61.103658" lon="25.927338">
<time>2020-09-09T16:56:07Z</time>
</trkpt>
<trkpt lat="61.103681" lon="25.927461">
<time>2020-09-09T16:56:08Z</time>
</trkpt>
<trkpt lat="61.103713" lon="25.927583">
<time>2020-09-09T16:56:09Z</time>
</trkpt>
<trkpt lat="61.103743" lon="25.927703">
<time>2020-09-09T16:56:10Z</time>
</trkpt>
<trkpt lat="61.103766" lon="25.927826">
<time>2020-09-09T16:56:11Z</time>
</trkpt>
<trkpt lat="61.103776" lon="25.927955">
<time>2020-09-09T16:56:12Z</time>
</trkpt>
<trkpt lat="61.103775" lon="25.928076">
<time>2020-09-09T16:56:13Z</time>
</trkpt>
<trkpt lat="61.103765" lon="25.928201">
<time>2020-09-09T16:56:14Z</time>
</trkpt>
<trkpt lat="61.103761" lon="25.928328">
<time>2020-09-09T16:56:15Z</time>
</trkpt>
<trkpt lat="61.10376" lon="25.928446">
<time>2020-09-09T16:56:16Z</time>
</trkpt>
<trkpt lat="61.103756" lon="25.928565">
<time>2020-09-09T16:56:17Z</time>
</trkpt>
<trkpt lat="61.103745" lon="25.928681">
<time>2020-09-09T16:56:18Z</time>
</trkpt>
<trkpt lat="61.103723" lon="25.928773">
<time>2020-09-09T16:56:19Z</time>
</trkpt>
<trkpt lat="61.103693" lon="25.92884">
<time>2020-09-09T16:56:20Z</time>
</trkpt>
<trkpt lat="61.103665" lon="25.928898">
<time>2020-09-09T16:56:21Z</time>
</trkpt>
<trkpt lat="61.103648" lon="25.928945">
<time>2020-09-09T16:56:22Z</time>
</trkpt>
<trkpt lat="61.103645" lon="25.928993">
<time>2020-09-09T16:56:23Z</time>
</trkpt>
<trkpt lat="61.103655" lon="25.929038">
<time>2020-09-09T16:56:24Z</time>
</trkpt>
<trkpt lat="61.103655" lon="25.929095">
<time>2020-09-09T16:56:25Z</time>
</trkpt>
<trkpt lat="61.103658" lon="25.929168">
<time>2020-09-09T16:56:26Z</time>
</trkpt>
<trkpt lat="61.103655" lon="25.929243">
<time>2020-09-09T16:56:27Z</time>
</trkpt>
<trkpt lat="61.103653" lon="25.929336">
<time>2020-09-09T16:56:28Z</time>
</trkpt>
<trkpt lat="61.103653" lon="25.92942">
<time>2020-09-09T16:56:29Z</time>
</trkpt>
<trkpt lat="61.10366" lon="25.929506">
<time>2020-09-09T16:56:30Z</time>
</trkpt>
<trkpt lat="61.103668" lon="25.929591">
<time>2020-09-09T16:56:31Z</time>
</trkpt>
<trkpt lat="61.103685" lon="25.929671">
<time>2020-09-09T16:56:32Z</time>
</trkpt>
<trkpt lat="61.103706" lon="25.92974">
<time>2020-09-09T16:56:33Z</time>
</trkpt>
<trkpt lat="61.103725" lon="25.929813">
<time>2020-09-09T16:56:34Z</time>
</trkpt>
<trkpt lat="61.10374" lon="25.929896">
<time>2020-09-09T16:56:35Z</time>
</trkpt>
<trkpt lat="61.103751" lon="25.929996">
<time>2020-09-09T16:56:36Z</time>
</trkpt>
<trkpt lat="61.103765" lon="25.930101">
<time>2020-09-09T16:56:37Z</time>
</trkpt>
<trkpt lat="61.10378" lon="25.930213">
<time>2020-09-09T16:56:38Z</time>
</trkpt>
<trkpt lat="61.103796" lon="25.930328">
<time>2020-09-09T16:56:39Z</time>
</trkpt>
<trkpt lat="61.103811" lon="25.930453">
<time>2020-09-09T16:56:40Z</time>
</trkpt>
<trkpt lat="61.103828" lon="25.93058">
<time>2020-09-09T16:56:41Z</time>
</trkpt>
<trkpt lat="61.103845" lon="25.930708">
<time>2020-09-09T16:56:42Z</time>
</trkpt>
<trkpt lat="61.103861" lon="25.930838">
<time>2020-09-09T16:56:43Z</time>
</trkpt>
<trkpt lat="61.103876" lon="25.930978">
<time>2020-09-09T16:56:44Z</time>
</trkpt>
<trkpt lat="61.103888" lon="25.93109">
<time>2020-09-09T16:56:45Z</time>
</trkpt>
<trkpt lat="61.103913" lon="25.931251">
<time>2020-09-09T16:56:46Z</time>
</trkpt>
<trkpt lat="61.103933" lon="25.931395">
<time>2020-09-09T16:56:47Z</time>
</trkpt>
<trkpt lat="61.103941" lon="25.931513">
<time>2020-09-09T16:56:48Z</time>
</trkpt>
<trkpt lat="61.103936" lon="25.931653">
<time>2020-09-09T16:56:49Z</time>
</trkpt>
<trkpt lat="61.103903" lon="25.931806">
<time>2020-09-09T16:56:50Z</time>
</trkpt>
<trkpt lat="61.103853" lon="25.931895">
<time>2020-09-09T16:56:51Z</time>
</trkpt>
<trkpt lat="61.103803" lon="25.931951">
<time>2020-09-09T16:56:52Z</time>
</trkpt>
<trkpt lat="61.103731" lon="25.932006">
<time>2020-09-09T16:56:53Z</time>
</trkpt>
<trkpt lat="61.103651" lon="25.932048">
<time>2020-09-09T16:56:54Z</time>
</trkpt>
<trkpt lat="61.103545" lon="25.932096">
<time>2020-09-09T16:56:55Z</time>
</trkpt>
<trkpt lat="61.103436" lon="25.932131">
<time>2020-09-09T16:56:56Z</time>
</trkpt>
<trkpt lat="61.103338" lon="25.932155">
<time>2020-09-09T16:56:57Z</time>
</trkpt>
<trkpt lat="61.103261" lon="25.932168">
<time>2020-09-09T16:56:58Z</time>
</trkpt>
<trkpt lat="61.103163" lon="25.93219">
<time>2020-09-09T16:56:59Z</time>
</trkpt>
<trkpt lat="61.103061" lon="25.932201">
<time>2020-09-09T16:57:00Z</time>
</trkpt>
<trkpt lat="61.102941" lon="25.932226">
<time>2020-09-09T16:57:01Z</time>
</trkpt>
<trkpt lat="61.10284" lon="25.93226">
<time>2020-09-09T16:57:02Z</time>
</trkpt>
<trkpt lat="61.102758" lon="25.932301">
<time>2020-09-09T16:57:03Z</time>
</trkpt>
<trkpt lat="61.102661" lon="25.932366">
<time>2020-09-09T16:57:04Z</time>
</trkpt>
<trkpt lat="61.102551" lon="25.932476">
<time>2020-09-09T16:57:05Z</time>
</trkpt>
<trkpt lat="61.102468" lon="25.932598">
<time>2020-09-09T16:57:06Z</time>
</trkpt>
<trkpt lat="61.10239" lon="25.932733">
<time>2020-09-09T16:57:07Z</time>
</trkpt>
<trkpt lat="61.102331" lon="25.932855">
<time>2020-09-09T16:57:08Z</time>
</trkpt>
<trkpt lat="61.10226" lon="25.933061">
<time>2020-09-09T16:57:09Z</time>
</trkpt>
<trkpt lat="61.102225" lon="25.933223">
<time>2020-09-09T16:57:10Z</time>
</trkpt>
<trkpt lat="61.102201" lon="25.933426">
<time>2020-09-09T16:57:11Z</time>
</trkpt>
<trkpt lat="61.102175" lon="25.933636">
<time>2020-09-09T16:57:12Z</time>
</trkpt>
<trkpt lat="61.102153" lon="25.933848">
<time>2020-09-09T16:57:13Z</time>
</trkpt>
<trkpt lat="61.102145" lon="25.934063">
<time>2020-09-09T16:57:14Z</time>
</trkpt>
<trkpt lat="61.102151" lon="25.93426">
<time>2020-09-09T16:57:15Z</time>
</trkpt>
<trkpt lat="61.102165" lon="25.934458">
<time>2020-09-09T16:57:16Z</time>
</trkpt>
<trkpt lat="61.102185" lon="25.93463">
<time>2020-09-09T16:57:17Z</time>
</trkpt>
<trkpt lat="61.102208" lon="25.93475">
<time>2020-09-09T16:57:18Z</time>
</trkpt>
<trkpt lat="61.102243" lon="25.934878">
<time>2020-09-09T16:57:19Z</time>
</trkpt>
<trkpt lat="61.102276" lon="25.934913">
<time>2020-09-09T16:57:20Z</time>
</trkpt>
<trkpt lat="61.102291" lon="25.934898">
<time>2020-09-09T16:57:21Z</time>
</trkpt>
<trkpt lat="61.102305" lon="25.934858">
<time>2020-09-09T16:57:22Z</time>
</trkpt>
<trkpt lat="61.10231" lon="25.934798">
<time>2020-09-09T16:57:23Z</time>
</trkpt>
<trkpt lat="61.102295" lon="25.934703">
<time>2020-09-09T16:57:24Z</time>
</trkpt>
<trkpt lat="61.102283" lon="25.934596">
<time>2020-09-09T16:57:25Z</time>
</trkpt>
<trkpt lat="61.10227" lon="25.934485">
<time>2020-09-09T16:57:26Z</time>
</trkpt>
<trkpt lat="61.102255" lon="25.934363">
<time>2020-09-09T16:57:27Z</time>
</trkpt>
<trkpt lat="61.102236" lon="25.934255">
<time>2020-09-09T16:57:28Z</time>
</trkpt>
<trkpt lat="61.102208" lon="25.934088">
<time>2020-09-09T16:57:29Z</time>
</trkpt>
<trkpt lat="61.1022" lon="25.93394">
<time>2020-09-09T16:57:30Z</time>
</trkpt>
<trkpt lat="61.102206" lon="25.933793">
<time>2020-09-09T16:57:31Z</time>
</trkpt>
<trkpt lat="61.102218" lon="25.933641">
<time>2020-09-09T16:57:32Z</time>
</trkpt>
<trkpt lat="61.102235" lon="25.9335">
<time>2020-09-09T16:57:33Z</time>
</trkpt>
<trkpt lat="61.102256" lon="25.933355">
<time>2020-09-09T16:57:34Z</time>
</trkpt>
<trkpt lat="61.102276" lon="25.933208">
<time>2020-09-09T16:57:35Z</time>
</trkpt>
<trkpt lat="61.102303" lon="25.933066">
<time>2020-09-09T16:57:36Z</time>
</trkpt>
<trkpt lat="61.10233" lon="25.932955">
<time>2020-09-09T16:57:37Z</time>
</trkpt>
<trkpt lat="61.102371" lon="25.932791">
<time>2020-09-09T16:57:38Z</time>
</trkpt>
<trkpt lat="61.10241" lon="25.932663">
<time>2020-09-09T16:57:39Z</time>
</trkpt>
<trkpt lat="61.102435" lon="25.932526">
<time>2020-09-09T16:57:40Z</time>
</trkpt>
<trkpt lat="61.102445" lon="25.932388">
<time>2020-09-09T16:57:41Z</time>
</trkpt>
<trkpt lat="61.102433" lon="25.932243">
<time>2020-09-09T16:57:42Z</time>
</trkpt>
<trkpt lat="61.102413" lon="25.932093">
<time>2020-09-09T16:57:43Z</time>
</trkpt>
<trkpt lat="61.102391" lon="25.931941">
<time>2020-09-09T16:57:44Z</time>
</trkpt>
<trkpt lat="61.102366" lon="25.931768">
<time>2020-09-09T16:57:45Z</time>
</trkpt>
<trkpt lat="61.102345" lon="25.931608">
<time>2020-09-09T16:57:46Z</time>
</trkpt>
<trkpt lat="61.102316" lon="25.93146">
<time>2020-09-09T16:57:47Z</time>
</trkpt>
<trkpt lat="61.102291" lon="25.931303">
<time>2020-09-09T16:57:48Z</time>
</trkpt>
<trkpt lat="61.102275" lon="25.931155">
<time>2020-09-09T16:57:49Z</time>
</trkpt>
<trkpt lat="61.102256" lon="25.931016">
<time>2020-09-09T16:57:50Z</time>
</trkpt>
<trkpt lat="61.10224" lon="25.93088">
<time>2020-09-09T16:57:51Z</time>
</trkpt>
<trkpt lat="61.102225" lon="25.930751">
<time>2020-09-09T16:57:52Z</time>
</trkpt>
<trkpt lat="61.102196" lon="25.930641">
<time>2020-09-09T16:57:53Z</time>
</trkpt>
<trkpt lat="61.102168" lon="25.930596">
<time>2020-09-09T16:57:54Z</time>
</trkpt>
<trkpt lat="61.102135" lon="25.930575">
<time>2020-09-09T16:57:55Z</time>
</trkpt>
<trkpt lat="61.102103" lon="25.930573">
<time>2020-09-09T16:57:56Z</time>
</trkpt>
<trkpt lat="61.102078" lon="25.93059">
<time>2020-09-09T16:57:57Z</time>
</trkpt>
<trkpt lat="61.10207" lon="25.930615">
<time>2020-09-09T16:57:58Z</time>
</trkpt>
<trkpt lat="61.102068" lon="25.93063">
<time>2020-09-09T16:57:59Z</time>
</trkpt>
<trkpt lat="61.102088" lon="25.930626">
<time>2020-09-09T16:58:00Z</time>
</trkpt>
<trkpt lat="61.102113" lon="25.930603">
<time>2020-09-09T16:58:01Z</time>
</trkpt>
<trkpt lat="61.102151" lon="25.93061">
<time>2020-09-09T16:58:02Z</time>
</trkpt>
<trkpt lat="61.102201" lon="25.930635">
<time>2020-09-09T16:58:03Z</time>
</trkpt>
<trkpt lat="61.102235" lon="25.930716">
<time>2020-09-09T16:58:04Z</time>
</trkpt>
<trkpt lat="61.102263" lon="25.930818">
<time>2020-09-09T16:58:05Z</time>
</trkpt>
<trkpt lat="61.102281" lon="25.930936">
<time>2020-09-09T16:58:06Z</time>
</trkpt>
<trkpt lat="61.102298" lon="25.93106">
<time>2020-09-09T16:58:07Z</time>
</trkpt>
<trkpt lat="61.102313" lon="25.931193">
<time>2020-09-09T16:58:08Z</time>
</trkpt>
<trkpt lat="61.102326" lon="25.931328">
<time>2020-09-09T16:58:09Z</time>
</trkpt>
<trkpt lat="61.102343" lon="25.931465">
<time>2020-09-09T16:58:10Z</time>
</trkpt>
<trkpt lat="61.10236" lon="25.931601">
<time>2020-09-09T16:58:11Z</time>
</trkpt>
<trkpt lat="61.102373" lon="25.93174">
<time>2020-09-09T16:58:12Z</time>
</trkpt>
<trkpt lat="61.102393" lon="25.931871">
<time>2020-09-09T16:58:13Z</time>
</trkpt>
<trkpt lat="61.10241" lon="25.932001">
<time>2020-09-09T16:58:14Z</time>
</trkpt>
<trkpt lat="61.102431" lon="25.932128">
<time>2020-09-09T16:58:15Z</time>
</trkpt>
<trkpt lat="61.102461" lon="25.932243">
<time>2020-09-09T16:58:16Z</time>
</trkpt>
<trkpt lat="61.102505" lon="25.932331">
<time>2020-09-09T16:58:17Z</time>
</trkpt>
<trkpt lat="61.102556" lon="25.932386">
<time>2020-09-09T16:58:18Z</time>
</trkpt>
<trkpt lat="61.102611" lon="25.932415">
<time>2020-09-09T16:58:19Z</time>
</trkpt>
<trkpt lat="61.102668" lon="25.932423">
<time>2020-09-09T16:58:20Z</time>
</trkpt>
<trkpt lat="61.102721" lon="25.932413">
<time>2020-09-09T16:58:21Z</time>
</trkpt>
<trkpt lat="61.102778" lon="25.932393">
<time>2020-09-09T16:58:22Z</time>
</trkpt>
<trkpt lat="61.102833" lon="25.932366">
<time>2020-09-09T16:58:23Z</time>
</trkpt>
<trkpt lat="61.10289" lon="25.93232">
<time>2020-09-09T16:58:24Z</time>
</trkpt>
<trkpt lat="61.102946" lon="25.932278">
<time>2020-09-09T16:58:25Z</time>
</trkpt>
<trkpt lat="61.102995" lon="25.932241">
<time>2020-09-09T16:58:26Z</time>
</trkpt>
<trkpt lat="61.103041" lon="25.932206">
<time>2020-09-09T16:58:27Z</time>
</trkpt>
<trkpt lat="61.103093" lon="25.932186">
<time>2020-09-09T16:58:28Z</time>
</trkpt>
<trkpt lat="61.103146" lon="25.932155">
<time>2020-09-09T16:58:29Z</time>
</trkpt>
<trkpt lat="61.10319" lon="25.93212">
<time>2020-09-09T16:58:30Z</time>
</trkpt>
<trkpt lat="61.103216" lon="25.932065">
<time>2020-09-09T16:58:31Z</time>
</trkpt>
<trkpt lat="61.103238" lon="25.932035">
<time>2020-09-09T16:58:32Z</time>
</trkpt>
<trkpt lat="61.103251" lon="25.932013">
<time>2020-09-09T16:58:33Z</time>
</trkpt>
<trkpt lat="61.10326" lon="25.931995">
<time>2020-09-09T16:58:34Z</time>
</trkpt>
<trkpt lat="61.103266" lon="25.931981">
<time>2020-09-09T16:58:35Z</time>
</trkpt>
<trkpt lat="61.103268" lon="25.931963">
<time>2020-09-09T16:58:36Z</time>
</trkpt>
<trkpt lat="61.103275" lon="25.93195">
<time>2020-09-09T16:58:37Z</time>
</trkpt>
<trkpt lat="61.103278" lon="25.931936">
<time>2020-09-09T16:58:38Z</time>
</trkpt>
<trkpt lat="61.103283" lon="25.931925">
<time>2020-09-09T16:58:39Z</time>
</trkpt>
<trkpt lat="61.103288" lon="25.93191">
<time>2020-09-09T16:58:40Z</time>
</trkpt>
<trkpt lat="61.103295" lon="25.931891">
<time>2020-09-09T16:58:41Z</time>
</trkpt>
<trkpt lat="61.103303" lon="25.931875">
<time>2020-09-09T16:58:42Z</time>
</trkpt>
<trkpt lat="61.103308" lon="25.931858">
<time>2020-09-09T16:58:43Z</time>
</trkpt>
<trkpt lat="61.103316" lon="25.931836">
<time>2020-09-09T16:58:44Z</time>
</trkpt>
<trkpt lat="61.103321" lon="25.931818">
<time>2020-09-09T16:58:45Z</time>
</trkpt>
<trkpt lat="61.103323" lon="25.931791">
<time>2020-09-09T16:58:46Z</time>
</trkpt>
<trkpt lat="61.103326" lon="25.931755">
<time>2020-09-09T16:58:47Z</time>
</trkpt>
<trkpt lat="61.10333" lon="25.931703">
<time>2020-09-09T16:58:48Z</time>
</trkpt>
<trkpt lat="61.103315" lon="25.931643">
<time>2020-09-09T16:58:49Z</time>
</trkpt>
<trkpt lat="61.10331" lon="25.931593">
<time>2020-09-09T16:58:50Z</time>
</trkpt>
<trkpt lat="61.103308" lon="25.931545">
<time>2020-09-09T16:58:51Z</time>
</trkpt>
<trkpt lat="61.103308" lon="25.931478">
<time>2020-09-09T16:58:52Z</time>
</trkpt>
<trkpt lat="61.103313" lon="25.931406">
<time>2020-09-09T16:58:53Z</time>
</trkpt>
<trkpt lat="61.10332" lon="25.931346">
<time>2020-09-09T16:58:54Z</time>
</trkpt>
<trkpt lat="61.103335" lon="25.931296">
<time>2020-09-09T16:58:55Z</time>
</trkpt>
<trkpt lat="61.103355" lon="25.931276">
<time>2020-09-09T16:58:56Z</time>
</trkpt>
<trkpt lat="61.103378" lon="25.931263">
<time>2020-09-09T16:58:57Z</time>
</trkpt>
<trkpt lat="61.103411" lon="25.931256">
<time>2020-09-09T16:58:58Z</time>
</trkpt>
<trkpt lat="61.103446" lon="25.931241">
<time>2020-09-09T16:58:59Z</time>
</trkpt>
<trkpt lat="61.103485" lon="25.931223">
<time>2020-09-09T16:59:00Z</time>
</trkpt>
<trkpt lat="61.103521" lon="25.931206">
<time>2020-09-09T16:59:01Z</time>
</trkpt>
<trkpt lat="61.103563" lon="25.931181">
<time>2020-09-09T16:59:02Z</time>
</trkpt>
<trkpt lat="61.103626" lon="25.931151">
<time>2020-09-09T16:59:03Z</time>
</trkpt>
<trkpt lat="61.103668" lon="25.931118">
<time>2020-09-09T16:59:04Z</time>
</trkpt>
<trkpt lat="61.103711" lon="25.931093">
<time>2020-09-09T16:59:05Z</time>
</trkpt>
<trkpt lat="61.103756" lon="25.931086">
<time>2020-09-09T16:59:06Z</time>
</trkpt>
<trkpt lat="61.103791" lon="25.931105">
<time>2020-09-09T16:59:07Z</time>
</trkpt>
<trkpt lat="61.103841" lon="25.931175">
<time>2020-09-09T16:59:08Z</time>
</trkpt>
<trkpt lat="61.103876" lon="25.931248">
<time>2020-09-09T16:59:09Z</time>
</trkpt>
<trkpt lat="61.103913" lon="25.931331">
<time>2020-09-09T16:59:10Z</time>
</trkpt>
<trkpt lat="61.103955" lon="25.931425">
<time>2020-09-09T16:59:11Z</time>
</trkpt>
<trkpt lat="61.104" lon="25.93149">
<time>2020-09-09T16:59:12Z</time>
</trkpt>
<trkpt lat="61.104068" lon="25.931556">
<time>2020-09-09T16:59:13Z</time>
</trkpt>
<trkpt lat="61.10413" lon="25.93158">
<time>2020-09-09T16:59:14Z</time>
</trkpt>
<trkpt lat="61.104195" lon="25.931588">
<time>2020-09-09T16:59:15Z</time>
</trkpt>
<trkpt lat="61.10425" lon="25.93158">
<time>2020-09-09T16:59:16Z</time>
</trkpt>
<trkpt lat="61.10433" lon="25.931555">
<time>2020-09-09T16:59:17Z</time>
</trkpt>
<trkpt lat="61.104405" lon="25.931526">
<time>2020-09-09T16:59:18Z</time>
</trkpt>
<trkpt lat="61.10448" lon="25.931486">
<time>2020-09-09T16:59:19Z</time>
</trkpt>
<trkpt lat="61.104556" lon="25.93144">
<time>2020-09-09T16:59:20Z</time>
</trkpt>
<trkpt lat="61.104636" lon="25.931385">
<time>2020-09-09T16:59:21Z</time>
</trkpt>
<trkpt lat="61.104716" lon="25.931341">
<time>2020-09-09T16:59:22Z</time>
</trkpt>
<trkpt lat="61.104796" lon="25.931296">
<time>2020-09-09T16:59:23Z</time>
</trkpt>
<trkpt lat="61.104876" lon="25.931258">
<time>2020-09-09T16:59:24Z</time>
</trkpt>
<trkpt lat="61.104961" lon="25.931223">
<time>2020-09-09T16:59:25Z</time>
</trkpt>
<trkpt lat="61.105045" lon="25.931185">
<time>2020-09-09T16:59:26Z</time>
</trkpt>
<trkpt lat="61.105133" lon="25.93115">
<time>2020-09-09T16:59:27Z</time>
</trkpt>
<trkpt lat="61.105215" lon="25.931113">
<time>2020-09-09T16:59:28Z</time>
</trkpt>
<trkpt lat="61.105295" lon="25.931075">
<time>2020-09-09T16:59:29Z</time>
</trkpt>
<trkpt lat="61.105358" lon="25.931041">
<time>2020-09-09T16:59:30Z</time>
</trkpt>
<trkpt lat="61.105455" lon="25.930986">
<time>2020-09-09T16:59:31Z</time>
</trkpt>
<trkpt lat="61.105535" lon="25.930938">
<time>2020-09-09T16:59:32Z</time>
</trkpt>
<trkpt lat="61.105611" lon="25.930878">
<time>2020-09-09T16:59:33Z</time>
</trkpt>
<trkpt lat="61.105676" lon="25.930786">
<time>2020-09-09T16:59:34Z</time>
</trkpt>
<trkpt lat="61.105716" lon="25.93069">
<time>2020-09-09T16:59:35Z</time>
</trkpt>
<trkpt lat="61.105763" lon="25.930526">
<time>2020-09-09T16:59:36Z</time>
</trkpt>
<trkpt lat="61.105785" lon="25.930376">
<time>2020-09-09T16:59:37Z</time>
</trkpt>
<trkpt lat="61.105785" lon="25.930231">
<time>2020-09-09T16:59:38Z</time>
</trkpt>
<trkpt lat="61.10577" lon="25.930078">
<time>2020-09-09T16:59:39Z</time>
</trkpt>
<trkpt lat="61.105761" lon="25.929926">
<time>2020-09-09T16:59:40Z</time>
</trkpt>
<trkpt lat="61.105753" lon="25.929778">
<time>2020-09-09T16:59:41Z</time>
</trkpt>
<trkpt lat="61.10575" lon="25.92964">
<time>2020-09-09T16:59:42Z</time>
</trkpt>
<trkpt lat="61.10577" lon="25.929521">
<time>2020-09-09T16:59:43Z</time>
</trkpt>
<trkpt lat="61.1058" lon="25.929445">
<time>2020-09-09T16:59:44Z</time>
</trkpt>
<trkpt lat="61.105861" lon="25.92936">
<time>2020-09-09T16:59:45Z</time>
</trkpt>
<trkpt lat="61.105925" lon="25.929301">
<time>2020-09-09T16:59:46Z</time>
</trkpt>
<trkpt lat="61.106006" lon="25.929246">
<time>2020-09-09T16:59:47Z</time>
</trkpt>
<trkpt lat="61.106078" lon="25.9292">
<time>2020-09-09T16:59:48Z</time>
</trkpt>
<trkpt lat="61.106156" lon="25.929141">
<time>2020-09-09T16:59:49Z</time>
</trkpt>
<trkpt lat="61.106226" lon="25.929048">
<time>2020-09-09T16:59:50Z</time>
</trkpt>
<trkpt lat="61.106275" lon="25.928953">
<time>2020-09-09T16:59:51Z</time>
</trkpt>
<trkpt lat="61.106315" lon="25.928851">
<time>2020-09-09T16:59:52Z</time>
</trkpt>
<trkpt lat="61.106333" lon="25.928756">
<time>2020-09-09T16:59:53Z</time>
</trkpt>
<trkpt lat="61.106348" lon="25.928635">
<time>2020-09-09T16:59:54Z</time>
</trkpt>
<trkpt lat="61.106358" lon="25.92848">
<time>2020-09-09T16:59:55Z</time>
</trkpt>
<trkpt lat="61.106355" lon="25.928336">
<time>2020-09-09T16:59:56Z</time>
</trkpt>
<trkpt lat="61.106348" lon="25.928188">
<time>2020-09-09T16:59:57Z</time>
</trkpt>
<trkpt lat="61.10634" lon="25.928066">
<time>2020-09-09T16:59:58Z</time>
</trkpt>
<trkpt lat="61.106331" lon="25.927915">
<time>2020-09-09T16:59:59Z</time>
</trkpt>
<trkpt lat="61.106326" lon="25.927736">
<time>2020-09-09T17:00:00Z</time>
</trkpt>
<trkpt lat="61.106323" lon="25.92758">
<time>2020-09-09T17:00:01Z</time>
</trkpt>
<trkpt lat="61.106315" lon="25.927423">
<time>2020-09-09T17:00:02Z</time>
</trkpt>
<trkpt lat="61.106301" lon="25.9273">
<time>2020-09-09T17:00:03Z</time>
</trkpt>
<trkpt lat="61.106283" lon="25.927135">
<time>2020-09-09T17:00:04Z</time>
</trkpt>
<trkpt lat="61.106265" lon="25.926948">
<time>2020-09-09T17:00:05Z</time>
</trkpt>
<trkpt lat="61.106253" lon="25.926806">
<time>2020-09-09T17:00:06Z</time>
</trkpt>
<trkpt lat="61.106265" lon="25.926695">
<time>2020-09-09T17:00:07Z</time>
</trkpt>
<trkpt lat="61.106296" lon="25.92661">
<time>2020-09-09T17:00:08Z</time>
</trkpt>
<trkpt lat="61.106335" lon="25.926565">
<time>2020-09-09T17:00:09Z</time>
</trkpt>
<trkpt lat="61.1064" lon="25.926518">
<time>2020-09-09T17:00:10Z</time>
</trkpt>
<trkpt lat="61.10646" lon="25.926501">
<time>2020-09-09T17:00:11Z</time>
</trkpt>
<trkpt lat="61.106521" lon="25.926491">
<time>2020-09-09T17:00:12Z</time>
</trkpt>
<trkpt lat="61.106571" lon="25.926488">
<time>2020-09-09T17:00:13Z</time>
</trkpt>
<trkpt lat="61.10665" lon="25.926478">
<time>2020-09-09T17:00:14Z</time>
</trkpt>
<trkpt lat="61.106701" lon="25.926473">
<time>2020-09-09T17:00:15Z</time>
</trkpt>
<trkpt lat="61.106778" lon="25.926453">
<time>2020-09-09T17:00:16Z</time>
</trkpt>
<trkpt lat="61.106826" lon="25.92644">
<time>2020-09-09T17:00:17Z</time>
</trkpt>
<trkpt lat="61.106881" lon="25.92641">
<time>2020-09-09T17:00:18Z</time>
</trkpt>
<trkpt lat="61.106941" lon="25.926341">
<time>2020-09-09T17:00:19Z</time>
</trkpt>
<trkpt lat="61.106983" lon="25.926261">
<time>2020-09-09T17:00:20Z</time>
</trkpt>
<trkpt lat="61.107006" lon="25.926161">
<time>2020-09-09T17:00:21Z</time>
</trkpt>
<trkpt lat="61.107016" lon="25.92607">
<time>2020-09-09T17:00:22Z</time>
</trkpt>
<trkpt lat="61.107015" lon="25.92595">
<time>2020-09-09T17:00:23Z</time>
</trkpt>
<trkpt lat="61.107006" lon="25.925805">
<time>2020-09-09T17:00:24Z</time>
</trkpt>
<trkpt lat="61.106996" lon="25.925683">
<time>2020-09-09T17:00:25Z</time>
</trkpt>
<trkpt lat="61.106995" lon="25.925565">
<time>2020-09-09T17:00:26Z</time>
</trkpt>
<trkpt lat="61.10698" lon="25.925465">
<time>2020-09-09T17:00:27Z</time>
</trkpt>
<trkpt lat="61.106968" lon="25.925348">
<time>2020-09-09T17:00:28Z</time>
</trkpt>
<trkpt lat="61.106955" lon="25.925213">
<time>2020-09-09T17:00:29Z</time>
</trkpt>
<trkpt lat="61.106943" lon="25.92509">
<time>2020-09-09T17:00:30Z</time>
</trkpt>
<trkpt lat="61.106926" lon="25.924975">
<time>2020-09-09T17:00:31Z</time>
</trkpt>
<trkpt lat="61.106911" lon="25.924863">
<time>2020-09-09T17:00:32Z</time>
</trkpt>
<trkpt lat="61.106896" lon="25.924775">
<time>2020-09-09T17:00:33Z</time>
</trkpt>
<trkpt lat="61.106871" lon="25.924641">
<time>2020-09-09T17:00:34Z</time>
</trkpt>
<trkpt lat="61.106848" lon="25.92453">
<time>2020-09-09T17:00:35Z</time>
</trkpt>
<trkpt lat="61.106826" lon="25.924416">
<time>2020-09-09T17:00:36Z</time>
</trkpt>
<trkpt lat="61.106798" lon="25.924303">
<time>2020-09-09T17:00:37Z</time>
</trkpt>
<trkpt lat="61.106771" lon="25.924193">
<time>2020-09-09T17:00:38Z</time>
</trkpt>
<trkpt lat="61.10675" lon="25.92408">
<time>2020-09-09T17:00:39Z</time>
</trkpt>
<trkpt lat="61.10673" lon="25.923968">
<time>2020-09-09T17:00:40Z</time>
</trkpt>
<trkpt lat="61.106713" lon="25.923853">
<time>2020-09-09T17:00:41Z</time>
</trkpt>
<trkpt lat="61.106701" lon="25.92376">
<time>2020-09-09T17:00:42Z</time>
</trkpt>
<trkpt lat="61.106686" lon="25.923623">
<time>2020-09-09T17:00:43Z</time>
</trkpt>
<trkpt lat="61.106681" lon="25.923501">
<time>2020-09-09T17:00:44Z</time>
</trkpt>
<trkpt lat="61.106671" lon="25.923403">
<time>2020-09-09T17:00:45Z</time>
</trkpt>
<trkpt lat="61.106663" lon="25.92328">
<time>2020-09-09T17:00:46Z</time>
</trkpt>
<trkpt lat="61.106655" lon="25.923155">
<time>2020-09-09T17:00:47Z</time>
</trkpt>
<trkpt lat="61.106645" lon="25.923">
<time>2020-09-09T17:00:48Z</time>
</trkpt>
<trkpt lat="61.10664" lon="25.922865">
<time>2020-09-09T17:00:49Z</time>
</trkpt>
<trkpt lat="61.106631" lon="25.922753">
<time>2020-09-09T17:00:50Z</time>
</trkpt>
<trkpt lat="61.106621" lon="25.92261">
<time>2020-09-09T17:00:51Z</time>
</trkpt>
<trkpt lat="61.106611" lon="25.922431">
<time>2020-09-09T17:00:52Z</time>
</trkpt>
<trkpt lat="61.106601" lon="25.922283">
<time>2020-09-09T17:00:53Z</time>
</trkpt>
<trkpt lat="61.106593" lon="25.922128">
<time>2020-09-09T17:00:54Z</time>
</trkpt>
<trkpt lat="61.106596" lon="25.92201">
<time>2020-09-09T17:00:55Z</time>
</trkpt>
<trkpt lat="61.106613" lon="25.921881">
<time>2020-09-09T17:00:56Z</time>
</trkpt>
<trkpt lat="61.106653" lon="25.921775">
<time>2020-09-09T17:00:57Z</time>
</trkpt>
<trkpt lat="61.106705" lon="25.92174">
<time>2020-09-09T17:00:58Z</time>
</trkpt>
<trkpt lat="61.106763" lon="25.921745">
<time>2020-09-09T17:00:59Z</time>
</trkpt>
<trkpt lat="61.106815" lon="25.921768">
<time>2020-09-09T17:01:00Z</time>
</trkpt>
<trkpt lat="61.106888" lon="25.921836">
<time>2020-09-09T17:01:01Z</time>
</trkpt>
<trkpt lat="61.106975" lon="25.921906">
<time>2020-09-09T17:01:02Z</time>
</trkpt>
<trkpt lat="61.107045" lon="25.921971">
<time>2020-09-09T17:01:03Z</time>
</trkpt>
<trkpt lat="61.107115" lon="25.922038">
<time>2020-09-09T17:01:04Z</time>
</trkpt>
<trkpt lat="61.107175" lon="25.922096">
<time>2020-09-09T17:01:05Z</time>
</trkpt>
<trkpt lat="61.107246" lon="25.922166">
<time>2020-09-09T17:01:06Z</time>
</trkpt>
<trkpt lat="61.107333" lon="25.922236">
<time>2020-09-09T17:01:07Z</time>
</trkpt>
<trkpt lat="61.10741" lon="25.922296">
<time>2020-09-09T17:01:08Z</time>
</trkpt>
<trkpt lat="61.10749" lon="25.922355">
<time>2020-09-09T17:01:09Z</time>
</trkpt>
<trkpt lat="61.107556" lon="25.922405">
<time>2020-09-09T17:01:10Z</time>
</trkpt>
<trkpt lat="61.107655" lon="25.922468">
<time>2020-09-09T17:01:11Z</time>
</trkpt>
<trkpt lat="61.107731" lon="25.922518">
<time>2020-09-09T17:01:12Z</time>
</trkpt>
<trkpt lat="61.107806" lon="25.922571">
<time>2020-09-09T17:01:13Z</time>
</trkpt>
<trkpt lat="61.107878" lon="25.922625">
<time>2020-09-09T17:01:14Z</time>
</trkpt>
<trkpt lat="61.10795" lon="25.922683">
<time>2020-09-09T17:01:15Z</time>
</trkpt>
<trkpt lat="61.108003" lon="25.922738">
<time>2020-09-09T17:01:16Z</time>
</trkpt>
<trkpt lat="61.10807" lon="25.922848">
<time>2020-09-09T17:01:17Z</time>
</trkpt>
<trkpt lat="61.108103" lon="25.922973">
<time>2020-09-09T17:01:18Z</time>
</trkpt>
<trkpt lat="61.108121" lon="25.923085">
<time>2020-09-09T17:01:19Z</time>
</trkpt>
<trkpt lat="61.108136" lon="25.92323">
<time>2020-09-09T17:01:20Z</time>
</trkpt>
<trkpt lat="61.108148" lon="25.923406">
<time>2020-09-09T17:01:21Z</time>
</trkpt>
<trkpt lat="61.108153" lon="25.923528">
<time>2020-09-09T17:01:22Z</time>
</trkpt>
<trkpt lat="61.10816" lon="25.923706">
<time>2020-09-09T17:01:23Z</time>
</trkpt>
<trkpt lat="61.108163" lon="25.923841">
<time>2020-09-09T17:01:24Z</time>
</trkpt>
<trkpt lat="61.108173" lon="25.924">
<time>2020-09-09T17:01:25Z</time>
</trkpt>
<trkpt lat="61.10818" lon="25.924168">
<time>2020-09-09T17:01:26Z</time>
</trkpt>
<trkpt lat="61.108185" lon="25.924313">
<time>2020-09-09T17:01:27Z</time>
</trkpt>
<trkpt lat="61.108196" lon="25.924441">
<time>2020-09-09T17:01:28Z</time>
</trkpt>
<trkpt lat="61.108211" lon="25.924528">
<time>2020-09-09T17:01:29Z</time>
</trkpt>
<trkpt lat="61.108238" lon="25.924608">
<time>2020-09-09T17:01:30Z</time>
</trkpt>
<trkpt lat="61.10827" lon="25.924653">
<time>2020-09-09T17:01:31Z</time>
</trkpt>
<trkpt lat="61.108311" lon="25.924666">
<time>2020-09-09T17:01:32Z</time>
</trkpt>
<trkpt lat="61.10835" lon="25.924665">
<time>2020-09-09T17:01:33Z</time>
</trkpt>
<trkpt lat="61.108388" lon="25.924658">
<time>2020-09-09T17:01:34Z</time>
</trkpt>
<trkpt lat="61.108421" lon="25.924646">
<time>2020-09-09T17:01:35Z</time>
</trkpt>
<trkpt lat="61.10845" lon="25.924615">
<time>2020-09-09T17:01:36Z</time>
</trkpt>
<trkpt lat="61.108476" lon="25.92458">
<time>2020-09-09T17:01:37Z</time>
</trkpt>
<trkpt lat="61.108496" lon="25.92456">
<time>2020-09-09T17:01:38Z</time>
</trkpt>
<trkpt lat="61.108511" lon="25.924555">
<time>2020-09-09T17:01:39Z</time>
</trkpt>
<trkpt lat="61.108521" lon="25.924571">
<time>2020-09-09T17:01:40Z</time>
</trkpt>
<trkpt lat="61.108528" lon="25.924591">
<time>2020-09-09T17:01:41Z</time>
</trkpt>
<trkpt lat="61.108533" lon="25.924591">
<time>2020-09-09T17:01:42Z</time>
</trkpt>
<trkpt lat="61.108541" lon="25.92459">
<time>2020-09-09T17:01:43Z</time>
</trkpt>
<trkpt lat="61.108565" lon="25.924585">
<time>2020-09-09T17:01:44Z</time>
</trkpt>
<trkpt lat="61.10859" lon="25.924576">
<time>2020-09-09T17:01:45Z</time>
</trkpt>
<trkpt lat="61.108618" lon="25.924555">
<time>2020-09-09T17:01:46Z</time>
</trkpt>
<trkpt lat="61.108645" lon="25.92451">
<time>2020-09-09T17:01:47Z</time>
</trkpt>
<trkpt lat="61.108676" lon="25.924463">
<time>2020-09-09T17:01:48Z</time>
</trkpt>
<trkpt lat="61.108698" lon="25.924396">
<time>2020-09-09T17:01:49Z</time>
</trkpt>
<trkpt lat="61.108721" lon="25.924316">
<time>2020-09-09T17:01:50Z</time>
</trkpt>
<trkpt lat="61.10874" lon="25.924218">
<time>2020-09-09T17:01:51Z</time>
</trkpt>
<trkpt lat="61.108761" lon="25.924116">
<time>2020-09-09T17:01:52Z</time>
</trkpt>
<trkpt lat="61.108786" lon="25.924001">
<time>2020-09-09T17:01:53Z</time>
</trkpt>
<trkpt lat="61.108815" lon="25.923881">
<time>2020-09-09T17:01:54Z</time>
</trkpt>
<trkpt lat="61.108851" lon="25.923765">
<time>2020-09-09T17:01:55Z</time>
</trkpt>
<trkpt lat="61.108906" lon="25.923675">
<time>2020-09-09T17:01:56Z</time>
</trkpt>
<trkpt lat="61.108966" lon="25.923618">
<time>2020-09-09T17:01:57Z</time>
</trkpt>
<trkpt lat="61.109021" lon="25.923601">
<time>2020-09-09T17:01:58Z</time>
</trkpt>
<trkpt lat="61.109078" lon="25.923628">
<time>2020-09-09T17:01:59Z</time>
</trkpt>
<trkpt lat="61.10913" lon="25.923678">
<time>2020-09-09T17:02:00Z</time>
</trkpt>
<trkpt lat="61.109183" lon="25.923763">
<time>2020-09-09T17:02:01Z</time>
</trkpt>
<trkpt lat="61.109233" lon="25.923855">
<time>2020-09-09T17:02:02Z</time>
</trkpt>
<trkpt lat="61.109281" lon="25.92394">
<time>2020-09-09T17:02:03Z</time>
</trkpt>
<trkpt lat="61.109331" lon="25.924008">
<time>2020-09-09T17:02:04Z</time>
</trkpt>
<trkpt lat="61.109383" lon="25.924065">
<time>2020-09-09T17:02:05Z</time>
</trkpt>
<trkpt lat="61.109436" lon="25.924101">
<time>2020-09-09T17:02:06Z</time>
</trkpt>
<trkpt lat="61.109495" lon="25.924126">
<time>2020-09-09T17:02:07Z</time>
</trkpt>
<trkpt lat="61.109551" lon="25.924143">
<time>2020-09-09T17:02:08Z</time>
</trkpt>
<trkpt lat="61.109613" lon="25.924143">
<time>2020-09-09T17:02:09Z</time>
</trkpt>
<trkpt lat="61.10968" lon="25.924143">
<time>2020-09-09T17:02:10Z</time>
</trkpt>
<trkpt lat="61.109751" lon="25.924163">
<time>2020-09-09T17:02:11Z</time>
</trkpt>
<trkpt lat="61.109815" lon="25.924216">
<time>2020-09-09T17:02:12Z</time>
</trkpt>
<trkpt lat="61.109851" lon="25.924306">
<time>2020-09-09T17:02:13Z</time>
</trkpt>
<trkpt lat="61.109873" lon="25.92441">
<time>2020-09-09T17:02:14Z</time>
</trkpt>
<trkpt lat="61.109886" lon="25.924536">
<time>2020-09-09T17:02:15Z</time>
</trkpt>
<trkpt lat="61.109888" lon="25.924673">
<time>2020-09-09T17:02:16Z</time>
</trkpt>
<trkpt lat="61.109881" lon="25.924818">
<time>2020-09-09T17:02:17Z</time>
</trkpt>
<trkpt lat="61.109871" lon="25.924963">
<time>2020-09-09T17:02:18Z</time>
</trkpt>
<trkpt lat="61.109858" lon="25.925103">
<time>2020-09-09T17:02:19Z</time>
</trkpt>
<trkpt lat="61.109838" lon="25.925238">
<time>2020-09-09T17:02:20Z</time>
</trkpt>
<trkpt lat="61.109813" lon="25.925363">
<time>2020-09-09T17:02:21Z</time>
</trkpt>
<trkpt lat="61.109785" lon="25.925485">
<time>2020-09-09T17:02:22Z</time>
</trkpt>
<trkpt lat="61.109756" lon="25.925603">
<time>2020-09-09T17:02:23Z</time>
</trkpt>
<trkpt lat="61.109728" lon="25.925728">
<time>2020-09-09T17:02:24Z</time>
</trkpt>
<trkpt lat="61.109698" lon="25.925856">
<time>2020-09-09T17:02:25Z</time>
</trkpt>
<trkpt lat="61.109661" lon="25.925981">
<time>2020-09-09T17:02:26Z</time>
</trkpt>
<trkpt lat="61.109626" lon="25.926113">
<time>2020-09-09T17:02:27Z</time>
</trkpt>
<trkpt lat="61.109591" lon="25.926253">
<time>2020-09-09T17:02:28Z</time>
</trkpt>
<trkpt lat="61.109553" lon="25.926386">
<time>2020-09-09T17:02:29Z</time>
</trkpt>
<trkpt lat="61.109508" lon="25.926511">
<time>2020-09-09T17:02:30Z</time>
</trkpt>
<trkpt lat="61.109475" lon="25.926621">
<time>2020-09-09T17:02:31Z</time>
</trkpt>
<trkpt lat="61.109441" lon="25.926731">
<time>2020-09-09T17:02:32Z</time>
</trkpt>
<trkpt lat="61.10941" lon="25.926836">
<time>2020-09-09T17:02:33Z</time>
</trkpt>
<trkpt lat="61.109375" lon="25.92694">
<time>2020-09-09T17:02:34Z</time>
</trkpt>
<trkpt lat="61.109336" lon="25.92704">
<time>2020-09-09T17:02:35Z</time>
</trkpt>
<trkpt lat="61.109303" lon="25.927145">
<time>2020-09-09T17:02:36Z</time>
</trkpt>
<trkpt lat="61.109265" lon="25.927241">
<time>2020-09-09T17:02:37Z</time>
</trkpt>
<trkpt lat="61.109226" lon="25.927331">
<time>2020-09-09T17:02:38Z</time>
</trkpt>
<trkpt lat="61.10919" lon="25.927426">
<time>2020-09-09T17:02:39Z</time>
</trkpt>
<trkpt lat="61.10915" lon="25.927515">
<time>2020-09-09T17:02:40Z</time>
</trkpt>
<trkpt lat="61.109105" lon="25.927596">
<time>2020-09-09T17:02:41Z</time>
</trkpt>
<trkpt lat="61.109053" lon="25.927673">
<time>2020-09-09T17:02:42Z</time>
</trkpt>
<trkpt lat="61.108991" lon="25.927753">
<time>2020-09-09T17:02:43Z</time>
</trkpt>
<trkpt lat="61.108921" lon="25.927818">
<time>2020-09-09T17:02:44Z</time>
</trkpt>
<trkpt lat="61.10886" lon="25.927878">
<time>2020-09-09T17:02:45Z</time>
</trkpt>
<trkpt lat="61.108808" lon="25.927945">
<time>2020-09-09T17:02:46Z</time>
</trkpt>
<trkpt lat="61.108758" lon="25.928011">
<time>2020-09-09T17:02:47Z</time>
</trkpt>
<trkpt lat="61.108713" lon="25.928098">
<time>2020-09-09T17:02:48Z</time>
</trkpt>
<trkpt lat="61.108675" lon="25.928196">
<time>2020-09-09T17:02:49Z</time>
</trkpt>
<trkpt lat="61.108633" lon="25.9283">
<time>2020-09-09T17:02:50Z</time>
</trkpt>
<trkpt lat="61.108605" lon="25.9284">
<time>2020-09-09T17:02:51Z</time>
</trkpt>
<trkpt lat="61.108566" lon="25.928513">
<time>2020-09-09T17:02:52Z</time>
</trkpt>
<trkpt lat="61.108528" lon="25.92863">
<time>2020-09-09T17:02:53Z</time>
</trkpt>
<trkpt lat="61.108493" lon="25.928743">
<time>2020-09-09T17:02:54Z</time>
</trkpt>
<trkpt lat="61.108451" lon="25.928871">
<time>2020-09-09T17:02:55Z</time>
</trkpt>
<trkpt lat="61.108423" lon="25.928955">
<time>2020-09-09T17:02:56Z</time>
</trkpt>
<trkpt lat="61.10839" lon="25.929078">
<time>2020-09-09T17:02:57Z</time>
</trkpt>
<trkpt lat="61.108373" lon="25.929165">
<time>2020-09-09T17:02:58Z</time>
</trkpt>
<trkpt lat="61.108386" lon="25.92921">
<time>2020-09-09T17:02:59Z</time>
</trkpt>
<trkpt lat="61.108388" lon="25.929228">
<time>2020-09-09T17:03:00Z</time>
</trkpt>
<trkpt lat="61.1084" lon="25.929243">
<time>2020-09-09T17:03:01Z</time>
</trkpt>
<trkpt lat="61.108413" lon="25.929258">
<time>2020-09-09T17:03:02Z</time>
</trkpt>
<trkpt lat="61.10843" lon="25.92927">
<time>2020-09-09T17:03:03Z</time>
</trkpt>
<trkpt lat="61.10844" lon="25.929283">
<time>2020-09-09T17:03:04Z</time>
</trkpt>
<trkpt lat="61.108445" lon="25.929305">
<time>2020-09-09T17:03:05Z</time>
</trkpt>
<trkpt lat="61.108446" lon="25.929321">
<time>2020-09-09T17:03:06Z</time>
</trkpt>
<trkpt lat="61.108441" lon="25.929341">
<time>2020-09-09T17:03:07Z</time>
</trkpt>
<trkpt lat="61.108438" lon="25.929375">
<time>2020-09-09T17:03:08Z</time>
</trkpt>
<trkpt lat="61.108443" lon="25.929405">
<time>2020-09-09T17:03:09Z</time>
</trkpt>
<trkpt lat="61.108455" lon="25.929425">
<time>2020-09-09T17:03:10Z</time>
</trkpt>
<trkpt lat="61.108475" lon="25.929433">
<time>2020-09-09T17:03:11Z</time>
</trkpt>
<trkpt lat="61.108508" lon="25.92943">
<time>2020-09-09T17:03:12Z</time>
</trkpt>
<trkpt lat="61.108546" lon="25.929405">
<time>2020-09-09T17:03:13Z</time>
</trkpt>
<trkpt lat="61.108603" lon="25.929373">
<time>2020-09-09T17:03:14Z</time>
</trkpt>
<trkpt lat="61.10865" lon="25.929331">
<time>2020-09-09T17:03:15Z</time>
</trkpt>
<trkpt lat="61.10869" lon="25.929301">
<time>2020-09-09T17:03:16Z</time>
</trkpt>
<trkpt lat="61.10874" lon="25.92928">
<time>2020-09-09T17:03:17Z</time>
</trkpt>
<trkpt lat="61.108795" lon="25.9293">
<time>2020-09-09T17:03:18Z</time>
</trkpt>
<trkpt lat="61.10883" lon="25.929355">
<time>2020-09-09T17:03:19Z</time>
</trkpt>
<trkpt lat="61.108848" lon="25.929425">
<time>2020-09-09T17:03:20Z</time>
</trkpt>
<trkpt lat="61.108863" lon="25.929533">
<time>2020-09-09T17:03:21Z</time>
</trkpt>
<trkpt lat="61.108875" lon="25.929658">
<time>2020-09-09T17:03:22Z</time>
</trkpt>
<trkpt lat="61.108883" lon="25.929781">
<time>2020-09-09T17:03:23Z</time>
</trkpt>
<trkpt lat="61.108888" lon="25.929931">
<time>2020-09-09T17:03:24Z</time>
</trkpt>
<trkpt lat="61.10888" lon="25.930036">
<time>2020-09-09T17:03:25Z</time>
</trkpt>
<trkpt lat="61.108853" lon="25.930155">
<time>2020-09-09T17:03:26Z</time>
</trkpt>
<trkpt lat="61.108793" lon="25.930258">
<time>2020-09-09T17:03:27Z</time>
</trkpt>
<trkpt lat="61.10872" lon="25.93032">
<time>2020-09-09T17:03:28Z</time>
</trkpt>
<trkpt lat="61.108643" lon="25.930356">
<time>2020-09-09T17:03:29Z</time>
</trkpt>
<trkpt lat="61.108583" lon="25.930376">
<time>2020-09-09T17:03:30Z</time>
</trkpt>
<trkpt lat="61.108508" lon="25.930401">
<time>2020-09-09T17:03:31Z</time>
</trkpt>
<trkpt lat="61.108416" lon="25.930428">
<time>2020-09-09T17:03:32Z</time>
</trkpt>
<trkpt lat="61.108333" lon="25.930443">
<time>2020-09-09T17:03:33Z</time>
</trkpt>
<trkpt lat="61.108246" lon="25.930466">
<time>2020-09-09T17:03:34Z</time>
</trkpt>
<trkpt lat="61.108173" lon="25.930486">
<time>2020-09-09T17:03:35Z</time>
</trkpt>
<trkpt lat="61.108088" lon="25.930511">
<time>2020-09-09T17:03:36Z</time>
</trkpt>
<trkpt lat="61.107983" lon="25.930541">
<time>2020-09-09T17:03:37Z</time>
</trkpt>
<trkpt lat="61.107895" lon="25.930566">
<time>2020-09-09T17:03:38Z</time>
</trkpt>
<trkpt lat="61.107806" lon="25.930593">
<time>2020-09-09T17:03:39Z</time>
</trkpt>
<trkpt lat="61.107735" lon="25.930618">
<time>2020-09-09T17:03:40Z</time>
</trkpt>
<trkpt lat="61.10763" lon="25.930656">
<time>2020-09-09T17:03:41Z</time>
</trkpt>
<trkpt lat="61.107541" lon="25.930691">
<time>2020-09-09T17:03:42Z</time>
</trkpt>
<trkpt lat="61.107455" lon="25.930736">
<time>2020-09-09T17:03:43Z</time>
</trkpt>
<trkpt lat="61.107388" lon="25.93079">
<time>2020-09-09T17:03:44Z</time>
</trkpt>
<trkpt lat="61.107301" lon="25.930916">
<time>2020-09-09T17:03:45Z</time>
</trkpt>
<trkpt lat="61.107236" lon="25.931041">
<time>2020-09-09T17:03:46Z</time>
</trkpt>
<trkpt lat="61.107168" lon="25.931168">
<time>2020-09-09T17:03:47Z</time>
</trkpt>
<trkpt lat="61.107105" lon="25.931296">
<time>2020-09-09T17:03:48Z</time>
</trkpt>
<trkpt lat="61.107048" lon="25.931421">
<time>2020-09-09T17:03:49Z</time>
</trkpt>
<trkpt lat="61.107005" lon="25.93152">
<time>2020-09-09T17:03:50Z</time>
</trkpt>
<trkpt lat="61.106955" lon="25.931676">
<time>2020-09-09T17:03:51Z</time>
</trkpt>
<trkpt lat="61.10694" lon="25.931805">
<time>2020-09-09T17:03:52Z</time>
</trkpt>
<trkpt lat="61.10694" lon="25.931928">
<time>2020-09-09T17:03:53Z</time>
</trkpt>
<trkpt lat="61.106955" lon="25.932021">
<time>2020-09-09T17:03:54Z</time>
</trkpt>
<trkpt lat="61.106991" lon="25.932135">
<time>2020-09-09T17:03:55Z</time>
</trkpt>
<trkpt lat="61.107038" lon="25.932248">
<time>2020-09-09T17:03:56Z</time>
</trkpt>
<trkpt lat="61.107115" lon="25.932381">
<time>2020-09-09T17:03:57Z</time>
</trkpt>
<trkpt lat="61.10718" lon="25.932495">
<time>2020-09-09T17:03:58Z</time>
</trkpt>
<trkpt lat="61.107235" lon="25.932588">
<time>2020-09-09T17:03:59Z</time>
</trkpt>
<trkpt lat="61.107298" lon="25.932698">
<time>2020-09-09T17:04:00Z</time>
</trkpt>
<trkpt lat="61.107375" lon="25.9328">
<time>2020-09-09T17:04:01Z</time>
</trkpt>
<trkpt lat="61.107466" lon="25.932916">
<time>2020-09-09T17:04:02Z</time>
</trkpt>
<trkpt lat="61.107533" lon="25.932988">
<time>2020-09-09T17:04:03Z</time>
</trkpt>
<trkpt lat="61.107621" lon="25.933076">
<time>2020-09-09T17:04:04Z</time>
</trkpt>
<trkpt lat="61.107711" lon="25.933168">
<time>2020-09-09T17:04:05Z</time>
</trkpt>
<trkpt lat="61.107823" lon="25.933283">
<time>2020-09-09T17:04:06Z</time>
</trkpt>
<trkpt lat="61.107916" lon="25.933378">
<time>2020-09-09T17:04:07Z</time>
</trkpt>
<trkpt lat="61.107995" lon="25.933448">
<time>2020-09-09T17:04:08Z</time>
</trkpt>
<trkpt lat="61.108086" lon="25.93354">
<time>2020-09-09T17:04:09Z</time>
</trkpt>
<trkpt lat="61.108193" lon="25.933651">
<time>2020-09-09T17:04:10Z</time>
</trkpt>
<trkpt lat="61.10828" lon="25.93375">
<time>2020-09-09T17:04:11Z</time>
</trkpt>
<trkpt lat="61.108363" lon="25.933858">
<time>2020-09-09T17:04:12Z</time>
</trkpt>
<trkpt lat="61.108426" lon="25.933953">
<time>2020-09-09T17:04:13Z</time>
</trkpt>
<trkpt lat="61.1085" lon="25.934078">
<time>2020-09-09T17:04:14Z</time>
</trkpt>
<trkpt lat="61.108576" lon="25.934216">
<time>2020-09-09T17:04:15Z</time>
</trkpt>
<trkpt lat="61.108641" lon="25.934336">
<time>2020-09-09T17:04:16Z</time>
</trkpt>
<trkpt lat="61.10869" lon="25.934436">
<time>2020-09-09T17:04:17Z</time>
</trkpt>
<trkpt lat="61.108748" lon="25.934561">
<time>2020-09-09T17:04:18Z</time>
</trkpt>
<trkpt lat="61.108795" lon="25.934691">
<time>2020-09-09T17:04:19Z</time>
</trkpt>
<trkpt lat="61.108843" lon="25.934853">
<time>2020-09-09T17:04:20Z</time>
</trkpt>
<trkpt lat="61.108878" lon="25.934991">
<time>2020-09-09T17:04:21Z</time>
</trkpt>
<trkpt lat="61.108906" lon="25.935128">
<time>2020-09-09T17:04:22Z</time>
</trkpt>
<trkpt lat="61.108933" lon="25.935263">
<time>2020-09-09T17:04:23Z</time>
</trkpt>
<trkpt lat="61.108956" lon="25.935373">
<time>2020-09-09T17:04:24Z</time>
</trkpt>
<trkpt lat="61.108995" lon="25.935521">
<time>2020-09-09T17:04:25Z</time>
</trkpt>
<trkpt lat="61.10903" lon="25.935633">
<time>2020-09-09T17:04:26Z</time>
</trkpt>
<trkpt lat="61.109063" lon="25.93573">
<time>2020-09-09T17:04:27Z</time>
</trkpt>
<trkpt lat="61.10909" lon="25.935813">
<time>2020-09-09T17:04:28Z</time>
</trkpt>
<trkpt lat="61.109101" lon="25.935866">
<time>2020-09-09T17:04:29Z</time>
</trkpt>
<trkpt lat="61.109101" lon="25.935918">
<time>2020-09-09T17:04:30Z</time>
</trkpt>
<trkpt lat="61.109086" lon="25.935925">
<time>2020-09-09T17:04:31Z</time>
</trkpt>
<trkpt lat="61.109068" lon="25.935896">
<time>2020-09-09T17:04:32Z</time>
</trkpt>
<trkpt lat="61.109053" lon="25.935853">
<time>2020-09-09T17:04:33Z</time>
</trkpt>
<trkpt lat="61.109033" lon="25.935781">
<time>2020-09-09T17:04:34Z</time>
</trkpt>
<trkpt lat="61.109001" lon="25.935666">
<time>2020-09-09T17:04:35Z</time>
</trkpt>
<trkpt lat="61.108966" lon="25.935563">
<time>2020-09-09T17:04:36Z</time>
</trkpt>
<trkpt lat="61.108936" lon="25.935475">
<time>2020-09-09T17:04:37Z</time>
</trkpt>
<trkpt lat="61.108903" lon="25.935375">
<time>2020-09-09T17:04:38Z</time>
</trkpt>
<trkpt lat="61.108861" lon="25.935286">
<time>2020-09-09T17:04:39Z</time>
</trkpt>
<trkpt lat="61.108835" lon="25.935266">
<time>2020-09-09T17:04:40Z</time>
</trkpt>
<trkpt lat="61.108796" lon="25.935255">
<time>2020-09-09T17:04:41Z</time>
</trkpt>
<trkpt lat="61.108763" lon="25.935275">
<time>2020-09-09T17:04:42Z</time>
</trkpt>
<trkpt lat="61.10874" lon="25.93532">
<time>2020-09-09T17:04:43Z</time>
</trkpt>
<trkpt lat="61.108701" lon="25.935403">
<time>2020-09-09T17:04:44Z</time>
</trkpt>
<trkpt lat="61.108671" lon="25.9355">
<time>2020-09-09T17:04:45Z</time>
</trkpt>
<trkpt lat="61.108631" lon="25.935611">
<time>2020-09-09T17:04:46Z</time>
</trkpt>
<trkpt lat="61.108581" lon="25.935705">
<time>2020-09-09T17:04:47Z</time>
</trkpt>
<trkpt lat="61.108543" lon="25.93577">
<time>2020-09-09T17:04:48Z</time>
</trkpt>
<trkpt lat="61.108481" lon="25.935846">
<time>2020-09-09T17:04:49Z</time>
</trkpt>
<trkpt lat="61.108431" lon="25.93589">
<time>2020-09-09T17:04:50Z</time>
</trkpt>
<trkpt lat="61.1084" lon="25.935926">
<time>2020-09-09T17:04:51Z</time>
</trkpt>
<trkpt lat="61.108371" lon="25.935981">
<time>2020-09-09T17:04:52Z</time>
</trkpt>
<trkpt lat="61.108345" lon="25.936046">
<time>2020-09-09T17:04:53Z</time>
</trkpt>
<trkpt lat="61.108331" lon="25.936103">
<time>2020-09-09T17:04:54Z</time>
</trkpt>
<trkpt lat="61.108316" lon="25.93617">
<time>2020-09-09T17:04:55Z</time>
</trkpt>
<trkpt lat="61.108305" lon="25.93623">
<time>2020-09-09T17:04:56Z</time>
</trkpt>
<trkpt lat="61.10829" lon="25.936303">
<time>2020-09-09T17:04:57Z</time>
</trkpt>
<trkpt lat="61.108268" lon="25.936396">
<time>2020-09-09T17:04:58Z</time>
</trkpt>
<trkpt lat="61.108248" lon="25.93648">
<time>2020-09-09T17:04:59Z</time>
</trkpt>
<trkpt lat="61.108225" lon="25.936561">
<time>2020-09-09T17:05:00Z</time>
</trkpt>
<trkpt lat="61.108205" lon="25.936623">
<time>2020-09-09T17:05:01Z</time>
</trkpt>
<trkpt lat="61.10818" lon="25.93669">
<time>2020-09-09T17:05:02Z</time>
</trkpt>
<trkpt lat="61.108158" lon="25.936766">
<time>2020-09-09T17:05:03Z</time>
</trkpt>
<trkpt lat="61.108155" lon="25.936821">
<time>2020-09-09T17:05:04Z</time>
</trkpt>
<trkpt lat="61.10816" lon="25.936866">
<time>2020-09-09T17:05:05Z</time>
</trkpt>
<trkpt lat="61.108173" lon="25.936881">
<time>2020-09-09T17:05:06Z</time>
</trkpt>
<trkpt lat="61.108195" lon="25.936873">
<time>2020-09-09T17:05:07Z</time>
</trkpt>
<trkpt lat="61.108215" lon="25.936815">
<time>2020-09-09T17:05:08Z</time>
</trkpt>
<trkpt lat="61.108228" lon="25.936736">
<time>2020-09-09T17:05:09Z</time>
</trkpt>
<trkpt lat="61.108236" lon="25.936641">
<time>2020-09-09T17:05:10Z</time>
</trkpt>
<trkpt lat="61.108243" lon="25.936561">
<time>2020-09-09T17:05:11Z</time>
</trkpt>
<trkpt lat="61.108253" lon="25.936456">
<time>2020-09-09T17:05:12Z</time>
</trkpt>
<trkpt lat="61.10826" lon="25.936323">
<time>2020-09-09T17:05:13Z</time>
</trkpt>
<trkpt lat="61.108261" lon="25.93621">
<time>2020-09-09T17:05:14Z</time>
</trkpt>
<trkpt lat="61.108256" lon="25.936096">
<time>2020-09-09T17:05:15Z</time>
</trkpt>
<trkpt lat="61.108253" lon="25.936018">
<time>2020-09-09T17:05:16Z</time>
</trkpt>
<trkpt lat="61.108248" lon="25.935933">
<time>2020-09-09T17:05:17Z</time>
</trkpt>
<trkpt lat="61.108238" lon="25.93584">
<time>2020-09-09T17:05:18Z</time>
</trkpt>
<trkpt lat="61.108228" lon="25.935758">
<time>2020-09-09T17:05:19Z</time>
</trkpt>
<trkpt lat="61.108215" lon="25.935693">
<time>2020-09-09T17:05:20Z</time>
</trkpt>
<trkpt lat="61.108193" lon="25.935606">
<time>2020-09-09T17:05:21Z</time>
</trkpt>
<trkpt lat="61.108163" lon="25.935526">
<time>2020-09-09T17:05:22Z</time>
</trkpt>
<trkpt lat="61.108118" lon="25.935441">
<time>2020-09-09T17:05:23Z</time>
</trkpt>
<trkpt lat="61.108073" lon="25.935378">
<time>2020-09-09T17:05:24Z</time>
</trkpt>
<trkpt lat="61.108028" lon="25.935305">
<time>2020-09-09T17:05:25Z</time>
</trkpt>
<trkpt lat="61.108001" lon="25.935231">
<time>2020-09-09T17:05:26Z</time>
</trkpt>
<trkpt lat="61.10798" lon="25.935128">
<time>2020-09-09T17:05:27Z</time>
</trkpt>
<trkpt lat="61.107961" lon="25.935001">
<time>2020-09-09T17:05:28Z</time>
</trkpt>
<trkpt lat="61.107943" lon="25.934901">
<time>2020-09-09T17:05:29Z</time>
</trkpt>
<trkpt lat="61.10792" lon="25.934825">
<time>2020-09-09T17:05:30Z</time>
</trkpt>
<trkpt lat="61.107883" lon="25.934741">
<time>2020-09-09T17:05:31Z</time>
</trkpt>
<trkpt lat="61.10783" lon="25.934646">
<time>2020-09-09T17:05:32Z</time>
</trkpt>
<trkpt lat="61.107776" lon="25.934571">
<time>2020-09-09T17:05:33Z</time>
</trkpt>
<trkpt lat="61.107721" lon="25.934493">
<time>2020-09-09T17:05:34Z</time>
</trkpt>
<trkpt lat="61.107661" lon="25.934416">
<time>2020-09-09T17:05:35Z</time>
</trkpt>
<trkpt lat="61.107606" lon="25.934351">
<time>2020-09-09T17:05:36Z</time>
</trkpt>
<trkpt lat="61.107525" lon="25.93424">
<time>2020-09-09T17:05:37Z</time>
</trkpt>
<trkpt lat="61.107466" lon="25.934145">
<time>2020-09-09T17:05:38Z</time>
</trkpt>
<trkpt lat="61.10741" lon="25.934046">
<time>2020-09-09T17:05:39Z</time>
</trkpt>
<trkpt lat="61.107363" lon="25.933966">
<time>2020-09-09T17:05:40Z</time>
</trkpt>
<trkpt lat="61.107303" lon="25.933866">
<time>2020-09-09T17:05:41Z</time>
</trkpt>
<trkpt lat="61.107241" lon="25.933766">
<time>2020-09-09T17:05:42Z</time>
</trkpt>
<trkpt lat="61.107165" lon="25.933641">
<time>2020-09-09T17:05:43Z</time>
</trkpt>
<trkpt lat="61.107113" lon="25.933553">
<time>2020-09-09T17:05:44Z</time>
</trkpt>
<trkpt lat="61.107048" lon="25.933441">
<time>2020-09-09T17:05:45Z</time>
</trkpt>
<trkpt lat="61.106981" lon="25.933325">
<time>2020-09-09T17:05:46Z</time>
</trkpt>
<trkpt lat="61.106915" lon="25.933206">
<time>2020-09-09T17:05:47Z</time>
</trkpt>
<trkpt lat="61.106833" lon="25.933061">
<time>2020-09-09T17:05:48Z</time>
</trkpt>
<trkpt lat="61.106778" lon="25.932966">
<time>2020-09-09T17:05:49Z</time>
</trkpt>
<trkpt lat="61.106713" lon="25.932843">
<time>2020-09-09T17:05:50Z</time>
</trkpt>
<trkpt lat="61.106651" lon="25.932718">
<time>2020-09-09T17:05:51Z</time>
</trkpt>
<trkpt lat="61.106593" lon="25.93259">
<time>2020-09-09T17:05:52Z</time>
</trkpt>
<trkpt lat="61.106533" lon="25.932456">
<time>2020-09-09T17:05:53Z</time>
</trkpt>
<trkpt lat="61.106476" lon="25.932326">
<time>2020-09-09T17:05:54Z</time>
</trkpt>
<trkpt lat="61.106418" lon="25.932195">
<time>2020-09-09T17:05:55Z</time>
</trkpt>
<trkpt lat="61.106363" lon="25.932061">
<time>2020-09-09T17:05:56Z</time>
</trkpt>
<trkpt lat="61.106306" lon="25.931928">
<time>2020-09-09T17:05:57Z</time>
</trkpt>
<trkpt lat="61.106253" lon="25.931795">
<time>2020-09-09T17:05:58Z</time>
</trkpt>
<trkpt lat="61.106196" lon="25.931661">
<time>2020-09-09T17:05:59Z</time>
</trkpt>
<trkpt lat="61.106141" lon="25.931533">
<time>2020-09-09T17:06:00Z</time>
</trkpt>
<trkpt lat="61.106091" lon="25.931405">
<time>2020-09-09T17:06:01Z</time>
</trkpt>
<trkpt lat="61.106055" lon="25.931261">
<time>2020-09-09T17:06:02Z</time>
</trkpt>
<trkpt lat="61.106036" lon="25.931105">
<time>2020-09-09T17:06:03Z</time>
</trkpt>
<trkpt lat="61.106035" lon="25.930943">
<time>2020-09-09T17:06:04Z</time>
</trkpt>
<trkpt lat="61.106033" lon="25.930785">
<time>2020-09-09T17:06:05Z</time>
</trkpt>
<trkpt lat="61.106016" lon="25.930601">
<time>2020-09-09T17:06:06Z</time>
</trkpt>
<trkpt lat="61.105993" lon="25.930481">
<time>2020-09-09T17:06:07Z</time>
</trkpt>
<trkpt lat="61.10595" lon="25.930306">
<time>2020-09-09T17:06:08Z</time>
</trkpt>
<trkpt lat="61.105913" lon="25.93019">
<time>2020-09-09T17:06:09Z</time>
</trkpt>
<trkpt lat="61.105865" lon="25.930048">
<time>2020-09-09T17:06:10Z</time>
</trkpt>
<trkpt lat="61.105811" lon="25.929908">
<time>2020-09-09T17:06:11Z</time>
</trkpt>
<trkpt lat="61.105756" lon="25.929776">
<time>2020-09-09T17:06:12Z</time>
</trkpt>
<trkpt lat="61.105703" lon="25.929643">
<time>2020-09-09T17:06:13Z</time>
</trkpt>
<trkpt lat="61.105681" lon="25.929525">
<time>2020-09-09T17:06:14Z</time>
</trkpt>
<trkpt lat="61.105683" lon="25.929416">
<time>2020-09-09T17:06:15Z</time>
</trkpt>
<trkpt lat="61.105716" lon="25.929336">
<time>2020-09-09T17:06:16Z</time>
</trkpt>
<trkpt lat="61.105768" lon="25.929263">
<time>2020-09-09T17:06:17Z</time>
</trkpt>
<trkpt lat="61.105841" lon="25.929215">
<time>2020-09-09T17:06:18Z</time>
</trkpt>
<trkpt lat="61.10592" lon="25.929161">
<time>2020-09-09T17:06:19Z</time>
</trkpt>
<trkpt lat="61.105991" lon="25.929106">
<time>2020-09-09T17:06:20Z</time>
</trkpt>
<trkpt lat="61.10606" lon="25.929045">
<time>2020-09-09T17:06:21Z</time>
</trkpt>
<trkpt lat="61.106133" lon="25.928963">
<time>2020-09-09T17:06:22Z</time>
</trkpt>
<trkpt lat="61.106183" lon="25.928911">
<time>2020-09-09T17:06:23Z</time>
</trkpt>
<trkpt lat="61.106246" lon="25.928858">
<time>2020-09-09T17:06:24Z</time>
</trkpt>
<trkpt lat="61.106316" lon="25.928826">
<time>2020-09-09T17:06:25Z</time>
</trkpt>
<trkpt lat="61.106386" lon="25.928815">
<time>2020-09-09T17:06:26Z</time>
</trkpt>
<trkpt lat="61.106458" lon="25.928821">
<time>2020-09-09T17:06:27Z</time>
</trkpt>
<trkpt lat="61.106531" lon="25.928831">
<time>2020-09-09T17:06:28Z</time>
</trkpt>
<trkpt lat="61.10661" lon="25.928846">
<time>2020-09-09T17:06:29Z</time>
</trkpt>
<trkpt lat="61.106686" lon="25.928866">
<time>2020-09-09T17:06:30Z</time>
</trkpt>
<trkpt lat="61.106765" lon="25.928876">
<time>2020-09-09T17:06:31Z</time>
</trkpt>
<trkpt lat="61.106846" lon="25.928893">
<time>2020-09-09T17:06:32Z</time>
</trkpt>
<trkpt lat="61.106923" lon="25.928896">
<time>2020-09-09T17:06:33Z</time>
</trkpt>
<trkpt lat="61.107005" lon="25.928908">
<time>2020-09-09T17:06:34Z</time>
</trkpt>
<trkpt lat="61.107086" lon="25.928918">
<time>2020-09-09T17:06:35Z</time>
</trkpt>
<trkpt lat="61.10716" lon="25.928921">
<time>2020-09-09T17:06:36Z</time>
</trkpt>
<trkpt lat="61.10724" lon="25.928913">
<time>2020-09-09T17:06:37Z</time>
</trkpt>
<trkpt lat="61.107286" lon="25.928893">
<time>2020-09-09T17:06:38Z</time>
</trkpt>
<trkpt lat="61.107341" lon="25.92886">
<time>2020-09-09T17:06:39Z</time>
</trkpt>
<trkpt lat="61.107398" lon="25.928806">
<time>2020-09-09T17:06:40Z</time>
</trkpt>
<trkpt lat="61.10743" lon="25.928756">
<time>2020-09-09T17:06:41Z</time>
</trkpt>
<trkpt lat="61.107458" lon="25.928681">
<time>2020-09-09T17:06:42Z</time>
</trkpt>
<trkpt lat="61.107456" lon="25.928625">
<time>2020-09-09T17:06:43Z</time>
</trkpt>
<trkpt lat="61.107458" lon="25.928576">
<time>2020-09-09T17:06:44Z</time>
</trkpt>
<trkpt lat="61.107461" lon="25.928553">
<time>2020-09-09T17:06:45Z</time>
</trkpt>
<trkpt lat="61.107461" lon="25.928535">
<time>2020-09-09T17:06:46Z</time>
</trkpt>
<trkpt lat="61.107456" lon="25.928531">
<time>2020-09-09T17:06:47Z</time>
</trkpt>
<trkpt lat="61.107443" lon="25.92853">
<time>2020-09-09T17:06:48Z</time>
</trkpt>
<trkpt lat="61.107418" lon="25.928515">
<time>2020-09-09T17:06:49Z</time>
</trkpt>
<trkpt lat="61.107391" lon="25.928465">
<time>2020-09-09T17:06:50Z</time>
</trkpt>
<trkpt lat="61.107371" lon="25.9284">
<time>2020-09-09T17:06:51Z</time>
</trkpt>
<trkpt lat="61.10736" lon="25.928326">
<time>2020-09-09T17:06:52Z</time>
</trkpt>
<trkpt lat="61.107351" lon="25.928226">
<time>2020-09-09T17:06:53Z</time>
</trkpt>
<trkpt lat="61.107355" lon="25.928126">
<time>2020-09-09T17:06:54Z</time>
</trkpt>
<trkpt lat="61.107356" lon="25.928013">
<time>2020-09-09T17:06:55Z</time>
</trkpt>
<trkpt lat="61.10736" lon="25.927886">
<time>2020-09-09T17:06:56Z</time>
</trkpt>
<trkpt lat="61.107358" lon="25.927755">
<time>2020-09-09T17:06:57Z</time>
</trkpt>
<trkpt lat="61.107358" lon="25.927611">
<time>2020-09-09T17:06:58Z</time>
</trkpt>
<trkpt lat="61.10739" lon="25.927463">
<time>2020-09-09T17:06:59Z</time>
</trkpt>
<trkpt lat="61.107411" lon="25.927375">
<time>2020-09-09T17:07:00Z</time>
</trkpt>
<trkpt lat="61.107443" lon="25.927285">
<time>2020-09-09T17:07:01Z</time>
</trkpt>
<trkpt lat="61.107481" lon="25.927213">
<time>2020-09-09T17:07:02Z</time>
</trkpt>
<trkpt lat="61.107523" lon="25.927161">
<time>2020-09-09T17:07:03Z</time>
</trkpt>
<trkpt lat="61.107573" lon="25.927135">
<time>2020-09-09T17:07:04Z</time>
</trkpt>
<trkpt lat="61.107618" lon="25.92711">
<time>2020-09-09T17:07:05Z</time>
</trkpt>
<trkpt lat="61.107668" lon="25.92709">
<time>2020-09-09T17:07:06Z</time>
</trkpt>
<trkpt lat="61.107721" lon="25.92707">
<time>2020-09-09T17:07:07Z</time>
</trkpt>
<trkpt lat="61.107775" lon="25.927051">
<time>2020-09-09T17:07:08Z</time>
</trkpt>
<trkpt lat="61.10784" lon="25.92702">
<time>2020-09-09T17:07:09Z</time>
</trkpt>
<trkpt lat="61.107888" lon="25.927005">
<time>2020-09-09T17:07:10Z</time>
</trkpt>
<trkpt lat="61.107956" lon="25.926985">
<time>2020-09-09T17:07:11Z</time>
</trkpt>
<trkpt lat="61.108011" lon="25.926988">
<time>2020-09-09T17:07:12Z</time>
</trkpt>
<trkpt lat="61.108075" lon="25.927">
<time>2020-09-09T17:07:13Z</time>
</trkpt>
<trkpt lat="61.108141" lon="25.927013">
<time>2020-09-09T17:07:14Z</time>
</trkpt>
<trkpt lat="61.108216" lon="25.92702">
<time>2020-09-09T17:07:15Z</time>
</trkpt>
<trkpt lat="61.108263" lon="25.927023">
<time>2020-09-09T17:07:16Z</time>
</trkpt>
<trkpt lat="61.108321" lon="25.927008">
<time>2020-09-09T17:07:17Z</time>
</trkpt>
<trkpt lat="61.10838" lon="25.926988">
<time>2020-09-09T17:07:18Z</time>
</trkpt>
<trkpt lat="61.108441" lon="25.926973">
<time>2020-09-09T17:07:19Z</time>
</trkpt>
<trkpt lat="61.108478" lon="25.926958">
<time>2020-09-09T17:07:20Z</time>
</trkpt>
<trkpt lat="61.108526" lon="25.926945">
<time>2020-09-09T17:07:21Z</time>
</trkpt>
<trkpt lat="61.10857" lon="25.926903">
<time>2020-09-09T17:07:22Z</time>
</trkpt>
<trkpt lat="61.108615" lon="25.926868">
<time>2020-09-09T17:07:23Z</time>
</trkpt>
<trkpt lat="61.10866" lon="25.926855">
<time>2020-09-09T17:07:24Z</time>
</trkpt>
<trkpt lat="61.108695" lon="25.926856">
<time>2020-09-09T17:07:25Z</time>
</trkpt>
<trkpt lat="61.108725" lon="25.926885">
<time>2020-09-09T17:07:26Z</time>
</trkpt>
<trkpt lat="61.108748" lon="25.926938">
<time>2020-09-09T17:07:27Z</time>
</trkpt>
<trkpt lat="61.108761" lon="25.926986">
<time>2020-09-09T17:07:28Z</time>
</trkpt>
<trkpt lat="61.108773" lon="25.927013">
<time>2020-09-09T17:07:29Z</time>
</trkpt>
<trkpt lat="61.108793" lon="25.927031">
<time>2020-09-09T17:07:30Z</time>
</trkpt>
<trkpt lat="61.108811" lon="25.927038">
<time>2020-09-09T17:07:31Z</time>
</trkpt>
<trkpt lat="61.108838" lon="25.927041">
<time>2020-09-09T17:07:32Z</time>
</trkpt>
<trkpt lat="61.108868" lon="25.927053">
<time>2020-09-09T17:07:33Z</time>
</trkpt>
<trkpt lat="61.108896" lon="25.927063">
<time>2020-09-09T17:07:34Z</time>
</trkpt>
<trkpt lat="61.108915" lon="25.92707">
<time>2020-09-09T17:07:35Z</time>
</trkpt>
<trkpt lat="61.108941" lon="25.92708">
<time>2020-09-09T17:07:36Z</time>
</trkpt>
<trkpt lat="61.108968" lon="25.927098">
<time>2020-09-09T17:07:37Z</time>
</trkpt>
<trkpt lat="61.108986" lon="25.927115">
<time>2020-09-09T17:07:38Z</time>
</trkpt>
<trkpt lat="61.10901" lon="25.927141">
<time>2020-09-09T17:07:39Z</time>
</trkpt>
<trkpt lat="61.109023" lon="25.927166">
<time>2020-09-09T17:07:40Z</time>
</trkpt>
<trkpt lat="61.109038" lon="25.9272">
<time>2020-09-09T17:07:41Z</time>
</trkpt>
<trkpt lat="61.109051" lon="25.92724">
<time>2020-09-09T17:07:42Z</time>
</trkpt>
<trkpt lat="61.109066" lon="25.927293">
<time>2020-09-09T17:07:43Z</time>
</trkpt>
<trkpt lat="61.109078" lon="25.92733">
<time>2020-09-09T17:07:44Z</time>
</trkpt>
<trkpt lat="61.109091" lon="25.927368">
<time>2020-09-09T17:07:45Z</time>
</trkpt>
<trkpt lat="61.1091" lon="25.92742">
<time>2020-09-09T17:07:46Z</time>
</trkpt>
<trkpt lat="61.109105" lon="25.927468">
<time>2020-09-09T17:07:47Z</time>
</trkpt>
<trkpt lat="61.109098" lon="25.927516">
<time>2020-09-09T17:07:48Z</time>
</trkpt>
<trkpt lat="61.109076" lon="25.927568">
<time>2020-09-09T17:07:49Z</time>
</trkpt>
<trkpt lat="61.109048" lon="25.927613">
<time>2020-09-09T17:07:50Z</time>
</trkpt>
<trkpt lat="61.109011" lon="25.927648">
<time>2020-09-09T17:07:51Z</time>
</trkpt>
<trkpt lat="61.108975" lon="25.927685">
<time>2020-09-09T17:07:52Z</time>
</trkpt>
<trkpt lat="61.108933" lon="25.927735">
<time>2020-09-09T17:07:53Z</time>
</trkpt>
<trkpt lat="61.108886" lon="25.927796">
<time>2020-09-09T17:07:54Z</time>
</trkpt>
<trkpt lat="61.108838" lon="25.927868">
<time>2020-09-09T17:07:55Z</time>
</trkpt>
<trkpt lat="61.108788" lon="25.927943">
<time>2020-09-09T17:07:56Z</time>
</trkpt>
<trkpt lat="61.10874" lon="25.928025">
<time>2020-09-09T17:07:57Z</time>
</trkpt>
<trkpt lat="61.108683" lon="25.928138">
<time>2020-09-09T17:07:58Z</time>
</trkpt>
<trkpt lat="61.108655" lon="25.92823">
<time>2020-09-09T17:07:59Z</time>
</trkpt>
<trkpt lat="61.108638" lon="25.928345">
<time>2020-09-09T17:08:00Z</time>
</trkpt>
<trkpt lat="61.108638" lon="25.928461">
<time>2020-09-09T17:08:01Z</time>
</trkpt>
<trkpt lat="61.108643" lon="25.928583">
<time>2020-09-09T17:08:02Z</time>
</trkpt>
<trkpt lat="61.108651" lon="25.928708">
<time>2020-09-09T17:08:03Z</time>
</trkpt>
<trkpt lat="61.108661" lon="25.928831">
<time>2020-09-09T17:08:04Z</time>
</trkpt>
<trkpt lat="61.108673" lon="25.928956">
<time>2020-09-09T17:08:05Z</time>
</trkpt>
<trkpt lat="61.108695" lon="25.929101">
<time>2020-09-09T17:08:06Z</time>
</trkpt>
<trkpt lat="61.10873" lon="25.929188">
<time>2020-09-09T17:08:07Z</time>
</trkpt>
<trkpt lat="61.10877" lon="25.929258">
<time>2020-09-09T17:08:08Z</time>
</trkpt>
<trkpt lat="61.108805" lon="25.929335">
<time>2020-09-09T17:08:09Z</time>
</trkpt>
<trkpt lat="61.108838" lon="25.929421">
<time>2020-09-09T17:08:10Z</time>
</trkpt>
<trkpt lat="61.108858" lon="25.929528">
<time>2020-09-09T17:08:11Z</time>
</trkpt>
<trkpt lat="61.10887" lon="25.929638">
<time>2020-09-09T17:08:12Z</time>
</trkpt>
<trkpt lat="61.108875" lon="25.92976">
<time>2020-09-09T17:08:13Z</time>
</trkpt>
<trkpt lat="61.108878" lon="25.929875">
<time>2020-09-09T17:08:14Z</time>
</trkpt>
<trkpt lat="61.108878" lon="25.929991">
<time>2020-09-09T17:08:15Z</time>
</trkpt>
<trkpt lat="61.108863" lon="25.930105">
<time>2020-09-09T17:08:16Z</time>
</trkpt>
<trkpt lat="61.10883" lon="25.930195">
<time>2020-09-09T17:08:17Z</time>
</trkpt>
<trkpt lat="61.10878" lon="25.930263">
<time>2020-09-09T17:08:18Z</time>
</trkpt>
<trkpt lat="61.10872" lon="25.93031">
<time>2020-09-09T17:08:19Z</time>
</trkpt>
<trkpt lat="61.108651" lon="25.930338">
<time>2020-09-09T17:08:20Z</time>
</trkpt>
<trkpt lat="61.108573" lon="25.930363">
<time>2020-09-09T17:08:21Z</time>
</trkpt>
<trkpt lat="61.108501" lon="25.930388">
<time>2020-09-09T17:08:22Z</time>
</trkpt>
<trkpt lat="61.108436" lon="25.930403">
<time>2020-09-09T17:08:23Z</time>
</trkpt>
<trkpt lat="61.10836" lon="25.93043">
<time>2020-09-09T17:08:24Z</time>
</trkpt>
<trkpt lat="61.108278" lon="25.930453">
<time>2020-09-09T17:08:25Z</time>
</trkpt>
<trkpt lat="61.108196" lon="25.930478">
<time>2020-09-09T17:08:26Z</time>
</trkpt>
<trkpt lat="61.10812" lon="25.930501">
<time>2020-09-09T17:08:27Z</time>
</trkpt>
<trkpt lat="61.108043" lon="25.930523">
<time>2020-09-09T17:08:28Z</time>
</trkpt>
<trkpt lat="61.107966" lon="25.930541">
<time>2020-09-09T17:08:29Z</time>
</trkpt>
<trkpt lat="61.107891" lon="25.930576">
<time>2020-09-09T17:08:30Z</time>
</trkpt>
<trkpt lat="61.107838" lon="25.930631">
<time>2020-09-09T17:08:31Z</time>
</trkpt>
<trkpt lat="61.10781" lon="25.930703">
<time>2020-09-09T17:08:32Z</time>
</trkpt>
<trkpt lat="61.107813" lon="25.930796">
<time>2020-09-09T17:08:33Z</time>
</trkpt>
<trkpt lat="61.107841" lon="25.930866">
<time>2020-09-09T17:08:34Z</time>
</trkpt>
<trkpt lat="61.10788" lon="25.930928">
<time>2020-09-09T17:08:35Z</time>
</trkpt>
<trkpt lat="61.107933" lon="25.930975">
<time>2020-09-09T17:08:36Z</time>
</trkpt>
<trkpt lat="61.107983" lon="25.931028">
<time>2020-09-09T17:08:37Z</time>
</trkpt>
<trkpt lat="61.108016" lon="25.931088">
<time>2020-09-09T17:08:38Z</time>
</trkpt>
<trkpt lat="61.108028" lon="25.93115">
<time>2020-09-09T17:08:39Z</time>
</trkpt>
<trkpt lat="61.108026" lon="25.931208">
<time>2020-09-09T17:08:40Z</time>
</trkpt>
<trkpt lat="61.108018" lon="25.931283">
<time>2020-09-09T17:08:41Z</time>
</trkpt>
<trkpt lat="61.108006" lon="25.931363">
<time>2020-09-09T17:08:42Z</time>
</trkpt>
<trkpt lat="61.107991" lon="25.93144">
<time>2020-09-09T17:08:43Z</time>
</trkpt>
<trkpt lat="61.107978" lon="25.931515">
<time>2020-09-09T17:08:44Z</time>
</trkpt>
<trkpt lat="61.107968" lon="25.93159">
<time>2020-09-09T17:08:45Z</time>
</trkpt>
<trkpt lat="61.107961" lon="25.931646">
<time>2020-09-09T17:08:46Z</time>
</trkpt>
<trkpt lat="61.10796" lon="25.931671">
<time>2020-09-09T17:08:47Z</time>
</trkpt>
<trkpt lat="61.107958" lon="25.93167">
<time>2020-09-09T17:08:48Z</time>
</trkpt>
<trkpt lat="61.107961" lon="25.93164">
<time>2020-09-09T17:08:49Z</time>
</trkpt>
<trkpt lat="61.107963" lon="25.931595">
<time>2020-09-09T17:08:50Z</time>
</trkpt>
<trkpt lat="61.10797" lon="25.931531">
<time>2020-09-09T17:08:51Z</time>
</trkpt>
<trkpt lat="61.107986" lon="25.931465">
<time>2020-09-09T17:08:52Z</time>
</trkpt>
<trkpt lat="61.108003" lon="25.931385">
<time>2020-09-09T17:08:53Z</time>
</trkpt>
<trkpt lat="61.108018" lon="25.931303">
<time>2020-09-09T17:08:54Z</time>
</trkpt>
<trkpt lat="61.108036" lon="25.931216">
<time>2020-09-09T17:08:55Z</time>
</trkpt>
<trkpt lat="61.108045" lon="25.93113">
<time>2020-09-09T17:08:56Z</time>
</trkpt>
<trkpt lat="61.108045" lon="25.93103">
<time>2020-09-09T17:08:57Z</time>
</trkpt>
<trkpt lat="61.108028" lon="25.930973">
<time>2020-09-09T17:08:58Z</time>
</trkpt>
<trkpt lat="61.107998" lon="25.93091">
<time>2020-09-09T17:08:59Z</time>
</trkpt>
<trkpt lat="61.107958" lon="25.930853">
<time>2020-09-09T17:09:00Z</time>
</trkpt>
<trkpt lat="61.10791" lon="25.930801">
<time>2020-09-09T17:09:01Z</time>
</trkpt>
<trkpt lat="61.107856" lon="25.930748">
<time>2020-09-09T17:09:02Z</time>
</trkpt>
<trkpt lat="61.107786" lon="25.930685">
<time>2020-09-09T17:09:03Z</time>
</trkpt>
<trkpt lat="61.107723" lon="25.930643">
<time>2020-09-09T17:09:04Z</time>
</trkpt>
<trkpt lat="61.107651" lon="25.930621">
<time>2020-09-09T17:09:05Z</time>
</trkpt>
<trkpt lat="61.10758" lon="25.930616">
<time>2020-09-09T17:09:06Z</time>
</trkpt>
<trkpt lat="61.107505" lon="25.93061">
<time>2020-09-09T17:09:07Z</time>
</trkpt>
<trkpt lat="61.10744" lon="25.930583">
<time>2020-09-09T17:09:08Z</time>
</trkpt>
<trkpt lat="61.10739" lon="25.930513">
<time>2020-09-09T17:09:09Z</time>
</trkpt>
<trkpt lat="61.107356" lon="25.930413">
<time>2020-09-09T17:09:10Z</time>
</trkpt>
<trkpt lat="61.107333" lon="25.930293">
<time>2020-09-09T17:09:11Z</time>
</trkpt>
<trkpt lat="61.107318" lon="25.930163">
<time>2020-09-09T17:09:12Z</time>
</trkpt>
<trkpt lat="61.10731" lon="25.930016">
<time>2020-09-09T17:09:13Z</time>
</trkpt>
<trkpt lat="61.107298" lon="25.929865">
<time>2020-09-09T17:09:14Z</time>
</trkpt>
<trkpt lat="61.107285" lon="25.929713">
<time>2020-09-09T17:09:15Z</time>
</trkpt>
<trkpt lat="61.107275" lon="25.929578">
<time>2020-09-09T17:09:16Z</time>
</trkpt>
<trkpt lat="61.107263" lon="25.929408">
<time>2020-09-09T17:09:17Z</time>
</trkpt>
<trkpt lat="61.10725" lon="25.929205">
<time>2020-09-09T17:09:18Z</time>
</trkpt>
<trkpt lat="61.10724" lon="25.92907">
<time>2020-09-09T17:09:19Z</time>
</trkpt>
<trkpt lat="61.10723" lon="25.928905">
<time>2020-09-09T17:09:20Z</time>
</trkpt>
<trkpt lat="61.107225" lon="25.928733">
<time>2020-09-09T17:09:21Z</time>
</trkpt>
<trkpt lat="61.107216" lon="25.928565">
<time>2020-09-09T17:09:22Z</time>
</trkpt>
<trkpt lat="61.107205" lon="25.928396">
<time>2020-09-09T17:09:23Z</time>
</trkpt>
<trkpt lat="61.107191" lon="25.928228">
<time>2020-09-09T17:09:24Z</time>
</trkpt>
<trkpt lat="61.107178" lon="25.928061">
<time>2020-09-09T17:09:25Z</time>
</trkpt>
<trkpt lat="61.107156" lon="25.927861">
<time>2020-09-09T17:09:26Z</time>
</trkpt>
<trkpt lat="61.107136" lon="25.927693">
<time>2020-09-09T17:09:27Z</time>
</trkpt>
<trkpt lat="61.107116" lon="25.927526">
<time>2020-09-09T17:09:28Z</time>
</trkpt>
<trkpt lat="61.1071" lon="25.927393">
<time>2020-09-09T17:09:29Z</time>
</trkpt>
<trkpt lat="61.10708" lon="25.927225">
<time>2020-09-09T17:09:30Z</time>
</trkpt>
<trkpt lat="61.107055" lon="25.927026">
<time>2020-09-09T17:09:31Z</time>
</trkpt>
<trkpt lat="61.10704" lon="25.926898">
<time>2020-09-09T17:09:32Z</time>
</trkpt>
<trkpt lat="61.107023" lon="25.926735">
<time>2020-09-09T17:09:33Z</time>
</trkpt>
<trkpt lat="61.107008" lon="25.926571">
<time>2020-09-09T17:09:34Z</time>
</trkpt>
<trkpt lat="61.106998" lon="25.926406">
<time>2020-09-09T17:09:35Z</time>
</trkpt>
<trkpt lat="61.106988" lon="25.926246">
<time>2020-09-09T17:09:36Z</time>
</trkpt>
<trkpt lat="61.106975" lon="25.926058">
<time>2020-09-09T17:09:37Z</time>
</trkpt>
<trkpt lat="61.106963" lon="25.925915">
<time>2020-09-09T17:09:38Z</time>
</trkpt>
<trkpt lat="61.10696" lon="25.925773">
<time>2020-09-09T17:09:39Z</time>
</trkpt>
<trkpt lat="61.106953" lon="25.925633">
<time>2020-09-09T17:09:40Z</time>
</trkpt>
<trkpt lat="61.10695" lon="25.925498">
<time>2020-09-09T17:09:41Z</time>
</trkpt>
<trkpt lat="61.106943" lon="25.925365">
<time>2020-09-09T17:09:42Z</time>
</trkpt>
<trkpt lat="61.106935" lon="25.925233">
<time>2020-09-09T17:09:43Z</time>
</trkpt>
<trkpt lat="61.106923" lon="25.925101">
<time>2020-09-09T17:09:44Z</time>
</trkpt>
<trkpt lat="61.106911" lon="25.924978">
<time>2020-09-09T17:09:45Z</time>
</trkpt>
<trkpt lat="61.106895" lon="25.92486">
<time>2020-09-09T17:09:46Z</time>
</trkpt>
<trkpt lat="61.106875" lon="25.924746">
<time>2020-09-09T17:09:47Z</time>
</trkpt>
<trkpt lat="61.106851" lon="25.924635">
<time>2020-09-09T17:09:48Z</time>
</trkpt>
<trkpt lat="61.106828" lon="25.924521">
<time>2020-09-09T17:09:49Z</time>
</trkpt>
<trkpt lat="61.106805" lon="25.924401">
<time>2020-09-09T17:09:50Z</time>
</trkpt>
<trkpt lat="61.10678" lon="25.924283">
<time>2020-09-09T17:09:51Z</time>
</trkpt>
<trkpt lat="61.106755" lon="25.92417">
<time>2020-09-09T17:09:52Z</time>
</trkpt>
<trkpt lat="61.106731" lon="25.924056">
<time>2020-09-09T17:09:53Z</time>
</trkpt>
<trkpt lat="61.106715" lon="25.923946">
<time>2020-09-09T17:09:54Z</time>
</trkpt>
<trkpt lat="61.106698" lon="25.92383">
<time>2020-09-09T17:09:55Z</time>
</trkpt>
<trkpt lat="61.106685" lon="25.923708">
<time>2020-09-09T17:09:56Z</time>
</trkpt>
<trkpt lat="61.106673" lon="25.923585">
<time>2020-09-09T17:09:57Z</time>
</trkpt>
<trkpt lat="61.106658" lon="25.92346">
<time>2020-09-09T17:09:58Z</time>
</trkpt>
<trkpt lat="61.106643" lon="25.923335">
<time>2020-09-09T17:09:59Z</time>
</trkpt>
<trkpt lat="61.106625" lon="25.923216">
<time>2020-09-09T17:10:00Z</time>
</trkpt>
<trkpt lat="61.106596" lon="25.923116">
<time>2020-09-09T17:10:01Z</time>
</trkpt>
<trkpt lat="61.106556" lon="25.923041">
<time>2020-09-09T17:10:02Z</time>
</trkpt>
<trkpt lat="61.106506" lon="25.922991">
<time>2020-09-09T17:10:03Z</time>
</trkpt>
<trkpt lat="61.10645" lon="25.922975">
<time>2020-09-09T17:10:04Z</time>
</trkpt>
<trkpt lat="61.106388" lon="25.922981">
<time>2020-09-09T17:10:05Z</time>
</trkpt>
<trkpt lat="61.106321" lon="25.923001">
<time>2020-09-09T17:10:06Z</time>
</trkpt>
<trkpt lat="61.10626" lon="25.923015">
<time>2020-09-09T17:10:07Z</time>
</trkpt>
<trkpt lat="61.106205" lon="25.923006">
<time>2020-09-09T17:10:08Z</time>
</trkpt>
<trkpt lat="61.106163" lon="25.922973">
<time>2020-09-09T17:10:09Z</time>
</trkpt>
<trkpt lat="61.106138" lon="25.922935">
<time>2020-09-09T17:10:10Z</time>
</trkpt>
<trkpt lat="61.106123" lon="25.922921">
<time>2020-09-09T17:10:11Z</time>
</trkpt>
<trkpt lat="61.106116" lon="25.922933">
<time>2020-09-09T17:10:12Z</time>
</trkpt>
<trkpt lat="61.106116" lon="25.92297">
<time>2020-09-09T17:10:13Z</time>
</trkpt>
<trkpt lat="61.106106" lon="25.923015">
<time>2020-09-09T17:10:14Z</time>
</trkpt>
<trkpt lat="61.106086" lon="25.92306">
<time>2020-09-09T17:10:15Z</time>
</trkpt>
<trkpt lat="61.106053" lon="25.923108">
<time>2020-09-09T17:10:16Z</time>
</trkpt>
<trkpt lat="61.106015" lon="25.923141">
<time>2020-09-09T17:10:17Z</time>
</trkpt>
<trkpt lat="61.105983" lon="25.923165">
<time>2020-09-09T17:10:18Z</time>
</trkpt>
<trkpt lat="61.105933" lon="25.923196">
<time>2020-09-09T17:10:19Z</time>
</trkpt>
<trkpt lat="61.105886" lon="25.92322">
<time>2020-09-09T17:10:20Z</time>
</trkpt>
<trkpt lat="61.105841" lon="25.92325">
<time>2020-09-09T17:10:21Z</time>
</trkpt>
<trkpt lat="61.105811" lon="25.923298">
<time>2020-09-09T17:10:22Z</time>
</trkpt>
<trkpt lat="61.105803" lon="25.923358">
<time>2020-09-09T17:10:23Z</time>
</trkpt>
<trkpt lat="61.105803" lon="25.92347">
<time>2020-09-09T17:10:24Z</time>
</trkpt>
<trkpt lat="61.105811" lon="25.923578">
<time>2020-09-09T17:10:25Z</time>
</trkpt>
<trkpt lat="61.10582" lon="25.923696">
<time>2020-09-09T17:10:26Z</time>
</trkpt>
<trkpt lat="61.105823" lon="25.923801">
<time>2020-09-09T17:10:27Z</time>
</trkpt>
<trkpt lat="61.105835" lon="25.923958">
<time>2020-09-09T17:10:28Z</time>
</trkpt>
<trkpt lat="61.105848" lon="25.924095">
<time>2020-09-09T17:10:29Z</time>
</trkpt>
<trkpt lat="61.105863" lon="25.924233">
<time>2020-09-09T17:10:30Z</time>
</trkpt>
<trkpt lat="61.105876" lon="25.924373">
<time>2020-09-09T17:10:31Z</time>
</trkpt>
<trkpt lat="61.105886" lon="25.924488">
<time>2020-09-09T17:10:32Z</time>
</trkpt>
<trkpt lat="61.105901" lon="25.924676">
<time>2020-09-09T17:10:33Z</time>
</trkpt>
<trkpt lat="61.105918" lon="25.924845">
<time>2020-09-09T17:10:34Z</time>
</trkpt>
<trkpt lat="61.105935" lon="25.925003">
<time>2020-09-09T17:10:35Z</time>
</trkpt>
<trkpt lat="61.105958" lon="25.925156">
<time>2020-09-09T17:10:36Z</time>
</trkpt>
<trkpt lat="61.10598" lon="25.925318">
<time>2020-09-09T17:10:37Z</time>
</trkpt>
<trkpt lat="61.106" lon="25.925485">
<time>2020-09-09T17:10:38Z</time>
</trkpt>
<trkpt lat="61.106026" lon="25.92565">
<time>2020-09-09T17:10:39Z</time>
</trkpt>
<trkpt lat="61.106056" lon="25.925813">
<time>2020-09-09T17:10:40Z</time>
</trkpt>
<trkpt lat="61.10609" lon="25.925981">
<time>2020-09-09T17:10:41Z</time>
</trkpt>
<trkpt lat="61.106123" lon="25.926153">
<time>2020-09-09T17:10:42Z</time>
</trkpt>
<trkpt lat="61.106155" lon="25.926331">
<time>2020-09-09T17:10:43Z</time>
</trkpt>
<trkpt lat="61.106183" lon="25.926515">
<time>2020-09-09T17:10:44Z</time>
</trkpt>
<trkpt lat="61.106211" lon="25.9267">
<time>2020-09-09T17:10:45Z</time>
</trkpt>
<trkpt lat="61.106236" lon="25.926885">
<time>2020-09-09T17:10:46Z</time>
</trkpt>
<trkpt lat="61.106256" lon="25.927061">
<time>2020-09-09T17:10:47Z</time>
</trkpt>
<trkpt lat="61.106271" lon="25.927243">
<time>2020-09-09T17:10:48Z</time>
</trkpt>
<trkpt lat="61.106285" lon="25.927423">
<time>2020-09-09T17:10:49Z</time>
</trkpt>
<trkpt lat="61.106295" lon="25.927606">
<time>2020-09-09T17:10:50Z</time>
</trkpt>
<trkpt lat="61.106305" lon="25.927788">
<time>2020-09-09T17:10:51Z</time>
</trkpt>
<trkpt lat="61.106308" lon="25.927966">
<time>2020-09-09T17:10:52Z</time>
</trkpt>
<trkpt lat="61.106313" lon="25.928153">
<time>2020-09-09T17:10:53Z</time>
</trkpt>
<trkpt lat="61.106315" lon="25.928343">
<time>2020-09-09T17:10:54Z</time>
</trkpt>
<trkpt lat="61.106323" lon="25.928528">
<time>2020-09-09T17:10:55Z</time>
</trkpt>
<trkpt lat="61.10632" lon="25.928711">
<time>2020-09-09T17:10:56Z</time>
</trkpt>
<trkpt lat="61.106303" lon="25.928873">
<time>2020-09-09T17:10:57Z</time>
</trkpt>
<trkpt lat="61.106268" lon="25.929018">
<time>2020-09-09T17:10:58Z</time>
</trkpt>
<trkpt lat="61.106216" lon="25.929143">
<time>2020-09-09T17:10:59Z</time>
</trkpt>
<trkpt lat="61.106153" lon="25.929243">
<time>2020-09-09T17:11:00Z</time>
</trkpt>
<trkpt lat="61.106073" lon="25.929326">
<time>2020-09-09T17:11:01Z</time>
</trkpt>
<trkpt lat="61.105985" lon="25.92939">
<time>2020-09-09T17:11:02Z</time>
</trkpt>
<trkpt lat="61.105893" lon="25.929445">
<time>2020-09-09T17:11:03Z</time>
</trkpt>
<trkpt lat="61.105811" lon="25.929513">
<time>2020-09-09T17:11:04Z</time>
</trkpt>
<trkpt lat="61.105758" lon="25.929568">
<time>2020-09-09T17:11:05Z</time>
</trkpt>
<trkpt lat="61.105713" lon="25.929658">
<time>2020-09-09T17:11:06Z</time>
</trkpt>
<trkpt lat="61.10569" lon="25.929768">
<time>2020-09-09T17:11:07Z</time>
</trkpt>
<trkpt lat="61.105683" lon="25.929901">
<time>2020-09-09T17:11:08Z</time>
</trkpt>
<trkpt lat="61.105673" lon="25.930011">
<time>2020-09-09T17:11:09Z</time>
</trkpt>
<trkpt lat="61.105645" lon="25.930111">
<time>2020-09-09T17:11:10Z</time>
</trkpt>
<trkpt lat="61.105593" lon="25.930188">
<time>2020-09-09T17:11:11Z</time>
</trkpt>
<trkpt lat="61.105548" lon="25.93026">
<time>2020-09-09T17:11:12Z</time>
</trkpt>
</trkseg>
<name>Piero</name>
</trk>
</gpx>